M I D A S
Marine Information and Data Acquisition System
Tripno 1108 of the Zeeleeuw from 2006-06-02 06:35:58 to 2006-06-02 14:54:49
Back to CruiseResearch ActivitiesStationsMapUnderway DataData graphs

EquipmentUnitsComment
TimeDGPSUTC
LatitudeDGPSDM.mWGS84
LongitudeDGPSDM.mWGS84
TemperatureSBE03/SBE38deg celciusITS90
ConductivitySBE21S/mITS90
SalinitySBE21 Practical Salinity Units
ChlorophylAChelsea fluorimeterg/lCalibrated in Aceton
Missing or incorrect values are displayed as -999
Sea surface data collected by the RV Zeeleeuw from 2006-06-02 06:32:24 to 2006-06-02 15:07:40
                                                                                    Next 1000 lines
Time Latitude Longitude Temperature Conductivity Salinity ChlorophylA
2006-06-02 06:32:34 51°13.601 2°56.095 19.3682 3.756541 29.46073 42.703879
2006-06-02 06:32:38 51°13.601 2°56.094 19.374 3.756541 29.461284 42.703879
2006-06-02 06:32:44 51°13.602 2°56.091 18.9296 3.756541 29.46073 42.737589
2006-06-02 06:32:49 51°13.602 2°56.089 18.2717 3.756541 29.46073 42.737589
2006-06-02 06:32:53 51°13.602 2°56.086 16.4355 3.752958 29.386911 39.670033
2006-06-02 06:32:59 51°13.603 2°56.082 15.6192 3.78572 29.357418 40.108255
2006-06-02 06:33:04 51°13.604 2°56.078 14.7865 3.683634 28.780752 48.569315
2006-06-02 06:33:09 51°13.605 2°56.073 14.5151 3.649601 28.165984 53.693144
2006-06-02 06:33:14 51°13.606 2°56.068 14.2712 2.26596 15.490294 50.254785
2006-06-02 06:33:19 51°13.607 2°56.063 14.0866 2.26596 15.490294 50.254785
2006-06-02 06:33:24 51°13.608 2°56.057 14.0729 3.285902 23.428033 49.648016
2006-06-02 06:33:29 51°13.609 2°56.051 13.8625 3.599332 26.578615 29.658341
2006-06-02 06:33:34 51°13.61 2°56.044 13.7623 3.775176 28.79069 26.219982
2006-06-02 06:33:39 51°13.611 2°56.038 13.808 3.615051 28.054936 25.309828
2006-06-02 06:33:44 51°13.612 2°56.031 13.6319 3.370182 26.478974 24.433383
2006-06-02 06:33:49 51°13.613 2°56.023 13.6011 3.370182 26.478974 24.433383
2006-06-02 06:33:54 51°13.614 2°56.016 13.5023 3.539222 28.166416 24.028871
2006-06-02 06:33:59 51°13.616 2°56.008 13.5039 3.505626 28.159283 23.894033
2006-06-02 06:34:04 51°13.617 2°56 13.4594 3.481615 28.11963 23.927742
2006-06-02 06:34:09 51°13.618 2°55.992 13.382 3.470874 28.147492 23.860324
2006-06-02 06:34:14 51°13.62 2°55.984 13.3409 3.462555 28.161792 24.163708
2006-06-02 06:34:18 51°13.621 2°55.978 13.2911 3.462555 28.161792 24.163708
2006-06-02 06:34:24 51°13.624 2°55.968 13.2805 3.431804 27.956863 25.680631
2006-06-02 06:34:29 51°13.626 2°55.96 13.2576 3.446023 28.166504 23.253554
2006-06-02 06:34:34 51°13.629 2°55.952 13.2454 3.424328 28.030522 22.983879
2006-06-02 06:34:39 51°13.632 2°55.943 13.1832 3.433597 28.168713 22.882751
2006-06-02 06:34:44 51°13.635 2°55.935 13.1643 3.427911 28.167874 22.815332
2006-06-02 06:34:49 51°13.639 2°55.926 13.1571 3.427911 28.167874 22.815332
2006-06-02 06:34:54 51°13.642 2°55.918 13.1172 3.451818 28.435388 22.815332
2006-06-02 06:34:59 51°13.646 2°55.909 13.1079 3.44413 28.388647 22.815332
2006-06-02 06:35:04 51°13.65 2°55.901 13.0798 3.444342 28.430697 22.815332
2006-06-02 06:35:09 51°13.654 2°55.893 13.0676 3.439708 28.411833 22.781623
2006-06-02 06:35:14 51°13.658 2°55.885 13.1238 3.427387 28.33343 22.747913
2006-06-02 06:35:19 51°13.661 2°55.877 13.1037 3.427387 28.33343 22.747913
2006-06-02 06:35:24 51°13.665 2°55.869 13.0394 3.425807 28.34248 22.849042
2006-06-02 06:35:29 51°13.669 2°55.86 13.028 3.397689 28.111057 22.95017
2006-06-02 06:35:34 51°13.674 2°55.852 13.0002 3.422438 28.36331 23.017589
2006-06-02 06:35:39 51°13.678 2°55.844 13.0183 3.425809 28.422537 23.118717
2006-06-02 06:35:44 51°13.683 2°55.836 12.9617 3.434129 28.505415 23.152426
2006-06-02 06:35:49 51°13.687 2°55.829 12.9557 3.434129 28.505415 23.152426
2006-06-02 06:35:54 51°13.692 2°55.821 12.9584 3.435392 28.507188 23.320973
2006-06-02 06:35:59 51°13.696 2°55.813 12.9208 3.409906 28.293638 23.455811
2006-06-02 06:36:04 51°13.701 2°55.806 12.9376 3.434024 28.539845 23.759195
2006-06-02 06:36:09 51°13.705 2°55.799 12.9379 3.43434 28.560784 23.826614
2006-06-02 06:36:14 51°13.708 2°55.793 12.9562 3.433603 28.566213 23.927742
2006-06-02 06:36:19 51°13.712 2°55.787 12.9325 3.433603 28.566213 23.927742
2006-06-02 06:36:24 51°13.715 2°55.781 12.9303 3.432339 28.576116 23.995161
2006-06-02 06:36:29 51°13.718 2°55.776 12.9324 3.439396 28.652926 24.096289
2006-06-02 06:36:34 51°13.72 2°55.772 12.9254 3.436868 28.643037 24.129999
2006-06-02 06:36:38 51°13.722 2°55.77 12.9157 3.441081 28.691329 24.298546
2006-06-02 06:36:44 51°13.723 2°55.766 12.9116 3.436447 28.652021 24.365965
2006-06-02 06:36:49 51°13.725 2°55.763 12.9268 3.436447 28.652021 24.365965
2006-06-02 06:36:54 51°13.726 2°55.76 12.9042 3.413173 28.43647 24.703059
2006-06-02 06:36:58 51°13.727 2°55.758 12.9081 3.417596 28.484873 24.770477
2006-06-02 06:37:04 51°13.728 2°55.756 12.8747 3.420966 28.518914 24.905315
2006-06-02 06:37:09 51°13.729 2°55.755 12.8865 3.415701 28.477844 25.006443
2006-06-02 06:37:14 51°13.729 2°55.754 12.8836 3.393269 28.273606 25.073862
2006-06-02 06:37:19 51°13.73 2°55.752 12.8941 3.393269 28.273606 25.073862
2006-06-02 06:37:24 51°13.731 2°55.75 12.8852 3.392637 28.272977 25.17499
2006-06-02 06:37:29 51°13.732 2°55.748 12.8769 3.379579 28.155339 25.276118
2006-06-02 06:37:34 51°13.732 2°55.746 12.8797 3.379579 28.158795 25.377247
2006-06-02 06:37:39 51°13.733 2°55.742 12.8715 3.372945 28.107353 25.444665
2006-06-02 06:37:44 51°13.733 2°55.739 12.8905 3.369891 28.087217 25.512084
2006-06-02 06:37:49 51°13.734 2°55.737 12.8748 3.369891 28.087217 25.512084
2006-06-02 06:37:53 51°13.734 2°55.735 12.8732 3.366943 28.0623 25.613212
2006-06-02 06:37:59 51°13.734 2°55.733 12.8605 3.367364 28.066762 25.714341
2006-06-02 06:38:04 51°13.734 2°55.732 12.8614 3.359993 28.003891 25.74805
2006-06-02 06:38:09 51°13.734 2°55.733 12.8652 3.347251 27.88861 25.815469
2006-06-02 06:38:14 51°13.735 2°55.733 12.8552 3.35041 27.917183 25.882888
2006-06-02 06:38:19 51°13.735 2°55.734 12.863 3.35041 27.917183 25.882888
2006-06-02 06:38:22 51°13.736 2°55.734 12.8755 3.344618 27.862044 25.950306
2006-06-02 06:38:29 51°13.736 2°55.733 12.8827 3.339669 27.81868 26.051435
2006-06-02 06:38:34 51°13.736 2°55.731 12.8683 3.319452 27.635146 26.152563
2006-06-02 06:38:39 51°13.735 2°55.728 12.8702 3.346093 27.887062 26.253691
2006-06-02 06:38:43 51°13.735 2°55.725 12.8686 3.339775 27.83276 26.2874
2006-06-02 06:38:49 51°13.733 2°55.721 12.8843 3.339775 27.83276 26.2874
2006-06-02 06:38:54 51°13.731 2°55.716 12.8738 3.358729 28.010585 26.32111
2006-06-02 06:38:58 51°13.73 2°55.713 12.87 3.360414 28.023848 26.354819
2006-06-02 06:39:04 51°13.727 2°55.708 12.8718 3.352727 27.949433 26.422238
2006-06-02 06:39:09 51°13.726 2°55.705 12.8538 3.332088 27.760712 26.523366
2006-06-02 06:39:14 51°13.725 2°55.703 12.8525 3.310712 27.562529 26.590785
2006-06-02 06:39:19 51°13.724 2°55.701 12.8513 3.310712 27.562529 26.590785
2006-06-02 06:39:24 51°13.724 2°55.7 12.8497 3.295865 27.425216 26.691913
2006-06-02 06:39:29 51°13.724 2°55.7 12.8469 3.285862 27.332573 26.691913
2006-06-02 06:39:34 51°13.725 2°55.7 12.837 3.275333 27.239037 26.927879
2006-06-02 06:39:39 51°13.726 2°55.7 12.845 3.289969 27.374294 27.029007
2006-06-02 06:39:44 51°13.727 2°55.701 12.8455 3.301341 27.484082 26.961589
2006-06-02 06:39:49 51°13.729 2°55.701 12.8499 3.301341 27.484082 26.961589
2006-06-02 06:39:54 51°13.731 2°55.703 12.8488 3.312186 27.588546 27.029007
2006-06-02 06:39:58 51°13.733 2°55.703 12.8612 3.3204 27.668245 27.096426
2006-06-02 06:40:04 51°13.737 2°55.703 12.8637 3.324822 27.710744 27.163845
2006-06-02 06:40:09 51°13.741 2°55.702 12.875 3.329771 27.76153 27.163845
2006-06-02 06:40:13 51°13.744 2°55.701 12.8747 3.327981 27.745578 27.264973
2006-06-02 06:40:18 51°13.749 2°55.699 12.8701 3.327981 27.745578 27.264973
2006-06-02 06:40:24 51°13.754 2°55.695 12.8512 3.318715 27.660645 27.298683
2006-06-02 06:40:29 51°13.76 2°55.692 12.8546 3.296182 27.451743 27.332392
2006-06-02 06:40:34 51°13.765 2°55.688 12.8504 3.265226 27.164425 27.399811
2006-06-02 06:40:39 51°13.771 2°55.682 12.849 3.22069 26.751693 27.568358
2006-06-02 06:40:44 51°13.778 2°55.678 12.8553 3.196581 26.526604 27.568358
2006-06-02 06:40:49 51°13.785 2°55.674 12.8605 3.196581 26.526604 27.568358
2006-06-02 06:40:54 51°13.794 2°55.669 12.844 3.179421 26.367648 27.602067
2006-06-02 06:40:59 51°13.802 2°55.663 12.8558 3.191001 26.475974 27.669486
2006-06-02 06:41:04 51°13.811 2°55.658 12.8668 3.202582 26.584921 27.736905
2006-06-02 06:41:08 51°13.818 2°55.653 12.8796 3.21511 26.703193 27.770614
2006-06-02 06:41:14 51°13.828 2°55.645 12.8815 3.229744 26.838159 27.804324
2006-06-02 06:41:18 51°13.835 2°55.64 12.885 3.229744 26.838159 27.804324
2006-06-02 06:41:24 51°13.845 2°55.631 12.8708 3.239115 26.924273 27.905452
2006-06-02 06:41:29 51°13.855 2°55.625 12.8775 3.241641 26.948053 27.972871
2006-06-02 06:41:34 51°13.864 2°55.618 12.8741 3.238483 26.919018 28.00658
2006-06-02 06:41:39 51°13.874 2°55.61 12.8778 3.228165 26.818702 28.073999
2006-06-02 06:41:42 51°13.88 2°55.606 12.8872 3.211425 26.660073 28.107708
2006-06-02 06:41:49 51°13.893 2°55.596 12.8832 3.211425 26.660073 28.107708
2006-06-02 06:41:54 51°13.903 2°55.589 12.8694 3.194686 26.503793 28.208836
2006-06-02 06:41:58 51°13.911 2°55.583 12.8591 3.185421 26.417778 28.242546
2006-06-02 06:42:04 51°13.922 2°55.573 12.8572 3.186053 26.423568 28.309965
2006-06-02 06:42:09 51°13.932 2°55.566 12.8698 3.181631 26.383045 28.276255
2006-06-02 06:42:14 51°13.942 2°55.559 12.8697 3.187211 26.432558 28.343674
2006-06-02 06:42:18 51°13.95 2°55.553 12.8514 3.187211 26.432558 28.343674
2006-06-02 06:42:24 51°13.962 2°55.545 12.8431 3.17342 26.305117 28.377383
2006-06-02 06:42:29 51°13.973 2°55.539 12.8473 3.176052 26.331382 28.377383
2006-06-02 06:42:34 51°13.983 2°55.532 12.8399 3.181421 26.384899 28.512221
2006-06-02 06:42:38 51°13.991 2°55.527 12.8251 3.185421 26.425356 28.54593
2006-06-02 06:42:44 51°14.003 2°55.519 12.8133 3.186474 26.434466 28.54593
2006-06-02 06:42:49 51°14.013 2°55.512 12.8316 3.186474 26.434466 28.54593
2006-06-02 06:42:54 51°14.023 2°55.505 12.8072 3.206582 26.619451 28.57964
2006-06-02 06:42:58 51°14.031 2°55.5 12.8159 3.228586 26.827518 28.613349
2006-06-02 06:43:03 51°14.04 2°55.493 12.8164 3.238483 26.922881 28.613349
2006-06-02 06:43:08 51°14.05 2°55.487 12.8269 3.261014 27.136241 28.714477
2006-06-02 06:43:13 51°14.06 2°55.48 12.8121 3.269964 27.224217 28.748187
2006-06-02 06:43:18 51°14.07 2°55.473 12.8091 3.269964 27.224217 28.748187
2006-06-02 06:43:24 51°14.081 2°55.464 12.817 3.270701 27.237711 28.815606
2006-06-02 06:43:29 51°14.091 2°55.457 12.8237 3.281652 27.341421 28.916734
2006-06-02 06:43:34 51°14.101 2°55.45 12.8005 3.274808 27.282262 28.916734
2006-06-02 06:43:38 51°14.109 2°55.445 12.8179 3.268174 27.220576 28.984153
2006-06-02 06:43:44 51°14.12 2°55.437 12.7975 3.290496 27.426907 29.017862
2006-06-02 06:43:49 51°14.13 2°55.43 12.8012 3.290496 27.426907 29.017862
2006-06-02 06:43:54 51°14.14 2°55.423 12.8087 3.278703 27.319853 29.017862
2006-06-02 06:43:59 51°14.15 2°55.415 12.794 3.29555 27.476346 29.085281
2006-06-02 06:44:02 51°14.155 2°55.41 12.7928 3.295129 27.470204 29.11899
2006-06-02 06:44:09 51°14.168 2°55.398 12.7881 3.296287 27.483146 29.186409
2006-06-02 06:44:14 51°14.177 2°55.388 12.7937 3.294182 27.466537 29.186409
2006-06-02 06:44:18 51°14.184 2°55.38 12.7916 3.294182 27.466537 29.186409
2006-06-02 06:44:24 51°14.195 2°55.369 12.7842 3.283652 27.373347 29.253828
2006-06-02 06:44:29 51°14.204 2°55.358 12.8 3.308291 27.603559 29.321247
2006-06-02 06:44:34 51°14.213 2°55.348 12.7966 3.303342 27.560694 29.388665
2006-06-02 06:44:38 51°14.22 2°55.338 12.7923 3.314925 27.672215 29.456084
2006-06-02 06:44:44 51°14.23 2°55.324 12.7979 3.317768 27.699623 29.489794
2006-06-02 06:44:49 51°14.238 2°55.311 12.8089 3.317768 27.699623 29.489794
2006-06-02 06:44:54 51°14.246 2°55.297 12.8194 3.294919 27.488577 29.523503
2006-06-02 06:44:58 51°14.252 2°55.286 12.8059 3.303237 27.564818 29.523503
2006-06-02 06:45:03 51°14.26 2°55.272 12.7974 3.293234 27.473025 29.557212
2006-06-02 06:45:09 51°14.269 2°55.255 12.8088 3.275545 27.307554 29.557212
2006-06-02 06:45:14 51°14.277 2°55.24 12.8061 3.268175 27.240706 29.557212
2006-06-02 06:45:19 51°14.284 2°55.225 12.7981 3.268175 27.240706 29.557212
2006-06-02 06:45:24 51°14.292 2°55.211 12.8026 3.270596 27.260236 29.590922
2006-06-02 06:45:29 51°14.3 2°55.196 12.8128 3.266806 27.220816 29.624631
2006-06-02 06:45:34 51°14.309 2°55.18 12.8084 3.269964 27.248814 29.69205
2006-06-02 06:45:38 51°14.315 2°55.169 12.7962 3.269649 27.246462 29.69205
2006-06-02 06:45:44 51°14.325 2°55.15 12.7959 3.267753 27.229551 29.69205
2006-06-02 06:45:49 51°14.334 2°55.135 12.803 3.267753 27.229551 29.69205
2006-06-02 06:45:54 51°14.343 2°55.121 12.7901 3.264805 27.203495 29.725759
2006-06-02 06:45:58 51°14.35 2°55.109 12.7874 3.271439 27.266323 29.793178
2006-06-02 06:46:04 51°14.361 2°55.091 12.7835 3.268175 27.234552 29.759469
2006-06-02 06:46:08 51°14.369 2°55.079 12.7722 3.280178 27.343547 29.759469
2006-06-02 06:46:13 51°14.378 2°55.065 12.754 3.290075 27.437103 29.860597
2006-06-02 06:46:18 51°14.388 2°55.05 12.7538 3.290075 27.437103 29.860597
2006-06-02 06:46:24 51°14.4 2°55.034 12.7473 3.291444 27.45199 29.860597
2006-06-02 06:46:29 51°14.411 2°55.019 12.7619 3.318084 27.700835 29.860597
2006-06-02 06:46:34 51°14.421 2°55.005 12.7537 3.331352 27.828618 29.894306
2006-06-02 06:46:38 51°14.43 2°54.995 12.7899 3.356414 28.065703 29.961725
2006-06-02 06:46:44 51°14.445 2°54.981 12.7466 3.371894 28.213729 29.995435
2006-06-02 06:46:49 51°14.457 2°54.969 12.7236 3.371894 28.213729 29.995435
2006-06-02 06:46:54 51°14.469 2°54.958 12.7182 3.381793 28.312472 29.961725
2006-06-02 06:46:58 51°14.479 2°54.95 12.7101 3.423601 28.70586 30.029144
2006-06-02 06:47:04 51°14.495 2°54.938 12.7261 3.428972 28.755184 29.995435
2006-06-02 06:47:09 51°14.508 2°54.928 12.7111 3.459831 29.042777 30.096563
2006-06-02 06:47:14 51°14.522 2°54.92 12.7119 3.478788 29.220491 30.130272
2006-06-02 06:47:18 51°14.533 2°54.913 12.6962 3.478788 29.220491 30.130272
2006-06-02 06:47:23 51°14.548 2°54.906 12.7202 3.495008 29.378282 30.197691
2006-06-02 06:47:29 51°14.566 2°54.898 12.701 3.515969 29.582321 30.298819
2006-06-02 06:47:34 51°14.58 2°54.892 12.7315 3.541143 29.826041 30.298819
2006-06-02 06:47:39 51°14.596 2°54.886 12.703 3.557048 29.976621 30.399947
2006-06-02 06:47:42 51°14.604 2°54.882 12.7253 3.571374 30.114395 30.433657
2006-06-02 06:47:49 51°14.626 2°54.874 12.6917 3.571374 30.114395 30.433657
2006-06-02 06:47:54 51°14.642 2°54.869 12.695 3.58254 30.224555 30.501076
2006-06-02 06:47:58 51°14.654 2°54.865 12.6934 3.60424 30.431064 30.399947
2006-06-02 06:48:04 51°14.674 2°54.859 12.6862 3.616986 30.551254 30.366238
2006-06-02 06:48:09 51°14.69 2°54.854 12.6868 3.628468 30.657118 30.332529
2006-06-02 06:48:13 51°14.703 2°54.85 12.6973 3.621094 30.586019 30.2314
2006-06-02 06:48:18 51°14.719 2°54.844 12.6874 3.621094 30.586019 30.2314
2006-06-02 06:48:24 51°14.739 2°54.837 12.6803 3.641426 30.778144 30.130272
2006-06-02 06:48:28 51°14.752 2°54.832 12.6754 3.65628 30.922794 30.029144
2006-06-02 06:48:34 51°14.773 2°54.824 12.6711 3.655332 30.918347 29.928016
2006-06-02 06:48:39 51°14.789 2°54.817 12.6757 3.664708 31.01034 29.894306
2006-06-02 06:48:42 51°14.799 2°54.813 12.6778 3.661126 30.977934 29.826888
2006-06-02 06:48:49 51°14.821 2°54.801 12.6786 3.661126 30.977934 29.826888
2006-06-02 06:48:54 51°14.838 2°54.794 12.6776 3.660599 30.974259 29.69205
2006-06-02 06:48:58 51°14.851 2°54.788 12.6727 3.66692 31.037554 29.557212
2006-06-02 06:49:04 51°14.871 2°54.779 12.6729 3.669554 31.068106 29.523503
2006-06-02 06:49:09 51°14.888 2°54.772 12.6732 3.660915 30.988745 29.422375
2006-06-02 06:49:14 51°14.904 2°54.766 12.6804 3.660283 30.984078 29.287537
2006-06-02 06:49:18 51°14.918 2°54.761 12.6817 3.660283 30.984078 29.287537
2006-06-02 06:49:23 51°14.935 2°54.755 12.6786 3.666183 31.037665 29.186409
2006-06-02 06:49:29 51°14.954 2°54.747 12.6682 3.667869 31.054809 29.11899
2006-06-02 06:49:34 51°14.971 2°54.741 12.6679 3.671872 31.094413 29.085281
2006-06-02 06:49:38 51°14.984 2°54.736 12.667 3.67872 31.160168 29.017862
2006-06-02 06:49:43 51°15.002 2°54.729 12.6716 3.685673 31.225651 28.916734
2006-06-02 06:49:49 51°15.021 2°54.72 12.6689 3.685673 31.225651 28.916734
2006-06-02 06:49:54 51°15.037 2°54.714 12.6708 3.682934 31.198563 28.883024
2006-06-02 06:49:59 51°15.054 2°54.706 12.6664 3.702108 31.378562 28.781896
2006-06-02 06:50:04 51°15.071 2°54.698 12.6675 3.705163 31.410603 28.613349
2006-06-02 06:50:09 51°15.088 2°54.691 12.6675 3.702003 31.382106 28.411093
2006-06-02 06:50:14 51°15.105 2°54.684 12.6674 3.720335 31.555626 28.343674
2006-06-02 06:50:18 51°15.118 2°54.678 12.6671 3.720335 31.555626 28.343674
2006-06-02 06:50:24 51°15.139 2°54.67 12.6688 3.725813 31.607316 28.276255
2006-06-02 06:50:29 51°15.157 2°54.663 12.6769 3.732556 31.670951 28.175127
2006-06-02 06:50:34 51°15.174 2°54.656 12.6681 3.73677 31.712698 28.107708
2006-06-02 06:50:39 51°15.192 2°54.65 12.6744 3.749414 31.832752 28.141418
2006-06-02 06:50:44 51°15.21 2°54.644 12.6744 3.751732 31.855307 28.242546
2006-06-02 06:50:49 51°15.227 2°54.639 12.6756 3.751732 31.855307 28.242546
2006-06-02 06:50:53 51°15.242 2°54.635 12.6567 3.754892 31.88517 28.276255
2006-06-02 06:50:58 51°15.259 2°54.629 12.6584 3.752785 31.862627 28.175127
2006-06-02 06:51:04 51°15.28 2°54.621 12.6589 3.754366 31.877558 28.107708
2006-06-02 06:51:09 51°15.298 2°54.613 12.6517 3.76743 32.000362 28.107708
2006-06-02 06:51:13 51°15.312 2°54.607 12.645 3.758369 31.914727 28.208836
2006-06-02 06:51:18 51°15.329 2°54.599 12.6356 3.758369 31.914727 28.208836
2006-06-02 06:51:24 51°15.35 2°54.588 12.6326 3.771856 32.039548 28.647059
2006-06-02 06:51:29 51°15.366 2°54.579 12.6299 3.772277 32.044194 28.309965
2006-06-02 06:51:34 51°15.384 2°54.57 12.6295 3.752574 31.861953 28.175127
2006-06-02 06:51:39 51°15.401 2°54.561 12.6289 3.774701 32.072408 28.00658
2006-06-02 06:51:42 51°15.411 2°54.556 12.6292 3.756367 31.903064 27.939161
2006-06-02 06:51:49 51°15.434 2°54.545 12.6242 3.756367 31.903064 27.939161
2006-06-02 06:51:54 51°15.452 2°54.538 12.626 3.770591 32.041499 27.871742
2006-06-02 06:51:59 51°15.469 2°54.531 12.623 3.767536 32.020548 27.838033
2006-06-02 06:52:04 51°15.487 2°54.525 12.6245 3.763322 31.984658 27.838033
2006-06-02 06:52:08 51°15.501 2°54.521 12.6262 3.756262 31.921203 27.804324
2006-06-02 06:52:14 51°15.522 2°54.515 12.6223 3.763322 31.989289 27.838033
2006-06-02 06:52:19 51°15.54 2°54.511 12.6234 3.763322 31.989289 27.838033
2006-06-02 06:52:24 51°15.558 2°54.506 12.6267 3.760477 31.963042 27.939161
2006-06-02 06:52:28 51°15.572 2°54.502 12.6285 3.75131 31.877678 27.972871
2006-06-02 06:52:34 51°15.593 2°54.496 12.6329 3.760477 31.965687 28.040289
2006-06-02 06:52:38 51°15.607 2°54.492 12.6311 3.758475 31.947413 28.107708
2006-06-02 06:52:44 51°15.629 2°54.486 12.6306 3.756473 31.929139 28.141418
2006-06-02 06:52:49 51°15.647 2°54.481 12.6277 3.756473 31.929139 28.141418
2006-06-02 06:52:54 51°15.664 2°54.476 12.6342 3.757211 31.937436 28.175127
2006-06-02 06:52:58 51°15.679 2°54.472 12.6354 3.753839 31.905548 28.309965
2006-06-02 06:53:04 51°15.699 2°54.466 12.637 3.754682 31.912859 28.444802
2006-06-02 06:53:08 51°15.714 2°54.462 12.6392 3.760266 31.963694 28.512221
2006-06-02 06:53:14 51°15.735 2°54.455 12.6439 3.761636 31.975989 28.444802
2006-06-02 06:53:18 51°15.749 2°54.45 12.6423 3.761636 31.975989 28.444802
2006-06-02 06:53:24 51°15.771 2°54.443 12.6512 3.755314 31.916857 28.276255
2006-06-02 06:53:29 51°15.788 2°54.437 12.6654 3.746253 31.830524 28.175127
2006-06-02 06:53:34 51°15.805 2°54.43 12.6754 3.75563 31.917866 28.073999
2006-06-02 06:53:38 51°15.82 2°54.426 12.6828 3.762479 31.980654 27.972871
2006-06-02 06:53:44 51°15.841 2°54.418 12.6899 3.759739 31.952762 27.939161
2006-06-02 06:53:49 51°15.859 2°54.413 12.6889 3.759739 31.952762 27.939161
2006-06-02 06:53:54 51°15.877 2°54.408 12.6866 3.759634 31.949122 27.939161
2006-06-02 06:53:58 51°15.891 2°54.404 12.6935 3.760793 31.958099 28.107708
2006-06-02 06:54:03 51°15.909 2°54.399 12.7 3.762162 31.964442 28.208836
2006-06-02 06:54:09 51°15.931 2°54.393 12.7077 3.762478 31.958841 28.444802
2006-06-02 06:54:14 51°15.949 2°54.388 12.711 3.760055 31.928018 28.478512
2006-06-02 06:54:18 51°15.963 2°54.384 12.7174 3.760055 31.928018 28.478512
2006-06-02 06:54:23 51°15.981 2°54.378 12.7158 3.767852 31.993768 28.377383
2006-06-02 06:54:28 51°15.998 2°54.372 12.718 3.767114 31.984817 28.208836
2006-06-02 06:54:34 51°16.019 2°54.364 12.7177 3.761319 31.926771 28.175127
2006-06-02 06:54:39 51°16.037 2°54.358 12.7131 3.77175 32.020688 28.208836
2006-06-02 06:54:42 51°16.047 2°54.355 12.7155 3.772909 32.026348 28.208836
2006-06-02 06:54:49 51°16.069 2°54.348 12.7134 3.772909 32.026348 28.208836
2006-06-02 06:54:54 51°16.083 2°54.343 12.716 3.770907 32.001491 28.242546
2006-06-02 06:54:58 51°16.095 2°54.34 12.7185 3.77196 32.007478 28.444802
2006-06-02 06:55:04 51°16.111 2°54.335 12.7219 3.772171 32.008147 28.478512
2006-06-02 06:55:09 51°16.124 2°54.332 12.726 3.773014 32.015446 28.54593
2006-06-02 06:55:13 51°16.135 2°54.329 12.7314 3.773541 32.020421 28.57964
2006-06-02 06:55:18 51°16.147 2°54.326 12.7358 3.773541 32.020421 28.57964
2006-06-02 06:55:24 51°16.161 2°54.322 12.7385 3.774805 32.031701 28.57964
2006-06-02 06:55:28 51°16.169 2°54.32 12.7403 3.766482 31.953105 28.647059
2006-06-02 06:55:34 51°16.181 2°54.316 12.7428 3.77765 32.057246 28.748187
2006-06-02 06:55:39 51°16.191 2°54.314 12.7436 3.778493 32.063222 28.748187
2006-06-02 06:55:44 51°16.199 2°54.311 12.7503 3.77902 32.064889 28.748187
2006-06-02 06:55:49 51°16.208 2°54.308 12.7558 3.77902 32.064889 28.748187
2006-06-02 06:55:54 51°16.216 2°54.306 12.7641 3.779968 32.070536 28.781896
2006-06-02 06:55:58 51°16.222 2°54.305 12.7495 3.780916 32.075521 28.815606
2006-06-02 06:56:04 51°16.23 2°54.303 12.7486 3.781022 32.073208 28.849315
2006-06-02 06:56:09 51°16.236 2°54.303 12.7483 3.781443 32.074541 28.849315
2006-06-02 06:56:14 51°16.24 2°54.302 12.7468 3.781548 32.076197 28.815606
2006-06-02 06:56:19 51°16.244 2°54.301 12.7488 3.781548 32.076197 28.815606
2006-06-02 06:56:24 51°16.247 2°54.301 12.7497 3.781443 32.071896 28.815606
2006-06-02 06:56:29 51°16.248 2°54.302 12.7539 3.868793 32.791829 28.815606
2006-06-02 06:56:33 51°16.249 2°54.302 12.758 3.781548 32.071568 28.748187
2006-06-02 06:56:38 51°16.249 2°54.303 12.7549 3.782075 32.078525 28.748187
2006-06-02 06:56:43 51°16.248 2°54.305 12.7601 3.782391 32.082832 28.714477
2006-06-02 06:56:49 51°16.248 2°54.306 12.7597 3.782391 32.082832 28.714477
2006-06-02 06:56:54 51°16.248 2°54.308 12.7672 3.78218 32.082166 28.714477
2006-06-02 06:56:59 51°16.247 2°54.309 12.7874 3.782075 32.079848 28.680768
2006-06-02 06:57:04 51°16.247 2°54.311 12.786 3.782497 32.082504 28.680768
2006-06-02 06:57:09 51°16.247 2°54.312 12.7769 3.782707 32.081847 28.647059
2006-06-02 06:57:14 51°16.247 2°54.313 12.7914 3.782918 32.084498 28.613349
2006-06-02 06:57:19 51°16.247 2°54.315 12.7736 3.782918 32.084498 28.613349
2006-06-02 06:57:24 51°16.247 2°54.316 12.778 3.783023 32.084169 28.647059
2006-06-02 06:57:29 51°16.247 2°54.317 12.7743 3.782391 32.074895 28.54593
2006-06-02 06:57:34 51°16.246 2°54.318 12.7788 3.782602 32.066967 28.54593
2006-06-02 06:57:39 51°16.246 2°54.32 12.769 3.783128 32.067312 28.512221
2006-06-02 06:57:44 51°16.246 2°54.32 12.7704 3.78355 32.069306 28.478512
2006-06-02 06:57:49 51°16.246 2°54.321 12.7697 3.78355 32.069306 28.478512
2006-06-02 06:57:53 51°16.246 2°54.322 12.7726 3.784077 32.073615 28.478512
2006-06-02 06:57:57 51°16.246 2°54.323 12.765 3.784393 32.077919 28.478512
2006-06-02 06:58:03 51°16.246 2°54.324 12.7634 3.784604 32.08123 28.478512
2006-06-02 06:58:09 51°16.245 2°54.325 12.769 3.784814 32.085201 28.444802
2006-06-02 06:58:13 51°16.245 2°54.326 12.7624 3.785763 32.096134 28.377383
2006-06-02 06:58:18 51°16.245 2°54.327 12.7597 3.785763 32.096134 28.377383
2006-06-02 06:58:24 51°16.245 2°54.327 12.7691 3.785763 32.097457 28.343674
2006-06-02 06:58:29 51°16.245 2°54.328 12.7583 3.785763 32.098118 28.343674
2006-06-02 06:58:34 51°16.245 2°54.329 12.756 3.786184 32.103419 28.343674
2006-06-02 06:58:39 51°16.245 2°54.33 12.7623 3.786079 32.103748 28.343674
2006-06-02 06:58:44 51°16.245 2°54.33 12.7628 3.785973 32.103415 28.343674
2006-06-02 06:58:49 51°16.245 2°54.332 12.7542 3.785973 32.103415 28.343674
2006-06-02 06:58:53 51°16.245 2°54.332 12.7619 3.786606 32.111368 28.309965
2006-06-02 06:58:58 51°16.244 2°54.333 12.7614 3.787132 32.117003 28.276255
2006-06-02 06:59:04 51°16.244 2°54.334 12.7562 3.787132 32.117665 28.276255
2006-06-02 06:59:09 51°16.244 2°54.335 12.7588 3.788081 32.127279 28.242546
2006-06-02 06:59:14 51°16.244 2°54.336 12.7655 3.787975 32.127609 28.242546
2006-06-02 06:59:18 51°16.244 2°54.336 12.7602 3.787975 32.127609 28.242546
2006-06-02 06:59:24 51°16.244 2°54.337 12.7613 3.787765 32.12562 28.276255
2006-06-02 06:59:29 51°16.244 2°54.338 12.7644 3.787975 32.128272 28.276255
2006-06-02 06:59:33 51°16.244 2°54.338 12.7643 3.787975 32.128272 28.309965
2006-06-02 06:59:38 51°16.244 2°54.339 12.7647 3.787975 32.127609 28.309965
2006-06-02 06:59:43 51°16.244 2°54.34 12.7616 3.787765 32.12562 28.309965
2006-06-02 06:59:49 51°16.244 2°54.341 12.762 3.787765 32.12562 28.309965
2006-06-02 06:59:54 51°16.244 2°54.342 12.7663 3.787343 32.120317 28.309965
2006-06-02 06:59:58 51°16.244 2°54.342 12.7639 3.787554 32.122306 28.309965
2006-06-02 07:00:04 51°16.244 2°54.343 12.7646 3.787449 32.120649 28.309965
2006-06-02 07:00:09 51°16.244 2°54.344 12.7671 3.786816 32.114019 28.309965
2006-06-02 07:00:14 51°16.244 2°54.345 12.7638 3.787343 32.118992 28.343674
2006-06-02 07:00:19 51°16.244 2°54.346 12.7662 3.787343 32.118992 28.343674
2006-06-02 07:00:23 51°16.243 2°54.346 12.7706 3.787238 32.119322 28.343674
2006-06-02 07:00:29 51°16.243 2°54.347 12.7691 3.785025 32.097112 28.309965
2006-06-02 07:00:33 51°16.243 2°54.347 12.7658 3.785236 32.099101 28.309965
2006-06-02 07:00:39 51°16.243 2°54.348 12.7684 3.785552 32.100761 28.343674
2006-06-02 07:00:44 51°16.243 2°54.349 12.7692 3.787554 32.118995 28.309965
2006-06-02 07:00:47 51°16.243 2°54.349 12.7707 3.787554 32.118995 28.309965
2006-06-02 07:00:54 51°16.243 2°54.35 12.7689 3.787449 32.118 28.309965
2006-06-02 07:00:58 51°16.243 2°54.351 12.7672 3.787554 32.118333 28.309965
2006-06-02 07:01:04 51°16.243 2°54.351 12.7676 3.787238 32.114687 28.309965
2006-06-02 07:01:09 51°16.243 2°54.352 12.769 3.787659 32.118665 28.276255
2006-06-02 07:01:14 51°16.243 2°54.353 12.7672 3.787554 32.117671 28.343674
2006-06-02 07:01:18 51°16.243 2°54.354 12.769 3.787554 32.117671 28.343674
2006-06-02 07:01:24 51°16.243 2°54.354 12.7709 3.787765 32.118336 28.309965
2006-06-02 07:01:29 51°16.243 2°54.355 12.7747 3.787765 32.118336 28.309965
2006-06-02 07:01:33 51°16.243 2°54.356 12.7727 3.787975 32.120325 28.343674
2006-06-02 07:01:37 51°16.243 2°54.356 12.7747 3.787659 32.117341 28.309965
2006-06-02 07:01:44 51°16.243 2°54.357 12.7714 3.787449 32.116014 28.377383
2006-06-02 07:01:49 51°16.243 2°54.357 12.7723 3.787449 32.116014 28.377383
2006-06-02 07:01:53 51°16.243 2°54.358 12.7707 3.787659 32.118003 28.343674
2006-06-02 07:01:57 51°16.243 2°54.359 12.7782 3.787554 32.115685 28.343674
2006-06-02 07:02:04 51°16.243 2°54.359 12.7701 3.787238 32.11204 28.343674
2006-06-02 07:02:09 51°16.243 2°54.36 12.7729 3.787975 32.117677 28.377383
2006-06-02 07:02:13 51°16.243 2°54.361 12.7751 3.787659 32.114032 28.343674
2006-06-02 07:02:18 51°16.243 2°54.362 12.7738 3.787659 32.114032 28.343674
2006-06-02 07:02:24 51°16.243 2°54.362 12.7743 3.787554 32.114361 28.309965
2006-06-02 07:02:29 51°16.244 2°54.363 12.7711 3.787659 32.114694 28.343674
2006-06-02 07:02:34 51°16.243 2°54.364 12.7704 3.787343 32.111049 28.343674
2006-06-02 07:02:39 51°16.244 2°54.364 12.7697 3.787765 32.117012 28.343674
2006-06-02 07:02:44 51°16.244 2°54.365 12.7706 3.787659 32.116017 28.343674
2006-06-02 07:02:49 51°16.244 2°54.366 12.7696 3.787659 32.116017 28.343674
2006-06-02 07:02:53 51°16.244 2°54.367 12.7689 3.787132 32.109722 28.343674
2006-06-02 07:02:58 51°16.244 2°54.367 12.7715 3.787027 32.108727 28.343674
2006-06-02 07:03:03 51°16.244 2°54.368 12.7704 3.787132 32.110383 28.377383
2006-06-02 07:03:09 51°16.244 2°54.369 12.7698 3.787132 32.111045 28.411093
2006-06-02 07:03:14 51°16.244 2°54.369 12.7699 3.787238 32.11204 28.343674
2006-06-02 07:03:19 51°16.244 2°54.37 12.7708 3.787238 32.11204 28.343674
2006-06-02 07:03:24 51°16.245 2°54.371 12.7698 3.787238 32.113363 28.377383
2006-06-02 07:03:29 51°16.245 2°54.371 12.7696 3.787132 32.112369 28.343674
2006-06-02 07:03:34 51°16.245 2°54.372 12.7681 3.786922 32.109718 28.377383
2006-06-02 07:03:38 51°16.245 2°54.373 12.77 3.7865 32.105741 28.444802
2006-06-02 07:03:44 51°16.245 2°54.374 12.7697 3.787132 32.112369 28.411093
2006-06-02 07:03:49 51°16.245 2°54.374 12.7682 3.787132 32.112369 28.411093
2006-06-02 07:03:53 51°16.246 2°54.375 12.7684 3.786395 32.104084 28.377383
2006-06-02 07:03:58 51°16.246 2°54.375 12.77 3.786711 32.108391 28.444802
2006-06-02 07:04:01 51°16.246 2°54.375 12.7707 3.786606 32.108059 28.411093
2006-06-02 07:04:09 51°16.246 2°54.377 12.7696 3.7865 32.107726 28.444802
2006-06-02 07:04:13 51°16.246 2°54.377 12.7697 3.786711 32.109715 28.444802
2006-06-02 07:04:19 51°16.247 2°54.378 12.7682 3.786711 32.109715 28.444802
2006-06-02 07:04:24 51°16.247 2°54.378 12.7705 3.786184 32.104742 28.411093
2006-06-02 07:04:29 51°16.247 2°54.379 12.7713 3.786816 32.110709 28.444802
2006-06-02 07:04:33 51°16.247 2°54.379 12.7681 3.786606 32.10872 28.478512
2006-06-02 07:04:39 51°16.248 2°54.38 12.7676 3.786816 32.109386 28.444802
2006-06-02 07:04:44 51°16.248 2°54.38 12.7688 3.786606 32.10872 28.444802
2006-06-02 07:04:49 51°16.249 2°54.379 12.7714 3.786606 32.10872 28.444802
2006-06-02 07:04:53 51°16.249 2°54.378 12.7735 3.78629 32.105737 28.411093
2006-06-02 07:04:57 51°16.25 2°54.376 12.7702 3.786606 32.108059 28.411093
2006-06-02 07:05:04 51°16.252 2°54.372 12.7675 3.786711 32.109053 28.444802
2006-06-02 07:05:09 51°16.253 2°54.367 12.7691 3.786922 32.111704 28.411093
2006-06-02 07:05:13 51°16.255 2°54.363 12.7664 3.786816 32.111371 28.411093
2006-06-02 07:05:17 51°16.257 2°54.358 12.7679 3.786816 32.111371 28.411093
2006-06-02 07:05:24 51°16.26 2°54.348 12.7695 3.7865 32.108388 28.411093
2006-06-02 07:05:29 51°16.263 2°54.34 12.7681 3.786606 32.10872 28.444802
2006-06-02 07:05:34 51°16.266 2°54.33 12.7691 3.786289 32.105075 28.444802
2006-06-02 07:05:38 51°16.27 2°54.322 12.773 3.786922 32.111704 28.411093
2006-06-02 07:05:44 51°16.276 2°54.309 12.7718 3.7865 32.108388 28.411093
2006-06-02 07:05:49 51°16.282 2°54.297 12.7722 3.7865 32.108388 28.411093
2006-06-02 07:05:54 51°16.289 2°54.285 12.776 3.7865 32.109711 28.377383
2006-06-02 07:05:59 51°16.296 2°54.272 12.7747 3.786606 32.110044 28.444802
2006-06-02 07:06:04 51°16.304 2°54.257 12.776 3.786711 32.111039 28.444802
2006-06-02 07:06:09 51°16.311 2°54.242 12.778 3.786711 32.109715 28.377383
2006-06-02 07:06:13 51°16.317 2°54.23 12.7785 3.786606 32.108059 28.444802
2006-06-02 07:06:19 51°16.328 2°54.21 12.7787 3.786606 32.108059 28.444802
2006-06-02 07:06:24 51°16.337 2°54.194 12.7775 3.786816 32.109386 28.444802
2006-06-02 07:06:29 51°16.347 2°54.178 12.7802 3.786816 32.108724 28.478512
2006-06-02 07:06:33 51°16.355 2°54.165 12.7785 3.786711 32.107068 28.478512
2006-06-02 07:06:38 51°16.366 2°54.148 12.7792 3.786289 32.101767 28.444802
2006-06-02 07:06:44 51°16.379 2°54.128 12.7755 3.786395 32.101438 28.478512
2006-06-02 07:06:49 51°16.391 2°54.111 12.7761 3.786395 32.101438 28.478512
2006-06-02 07:06:54 51°16.403 2°54.094 12.7741 3.787027 32.105419 28.411093
2006-06-02 07:06:59 51°16.414 2°54.078 12.7704 3.78787 32.114035 28.309965
2006-06-02 07:07:04 51°16.426 2°54.062 12.7666 3.788818 32.122322 28.242546
2006-06-02 07:07:09 51°16.438 2°54.044 12.768 3.789345 32.126632 28.141418
2006-06-02 07:07:13 51°16.448 2°54.031 12.765 3.789766 32.131272 28.040289
2006-06-02 07:07:18 51°16.461 2°54.015 12.7678 3.789766 32.131272 28.040289
2006-06-02 07:07:24 51°16.476 2°53.994 12.7718 3.790504 32.139557 28.040289
2006-06-02 07:07:29 51°16.489 2°53.976 12.7676 3.791558 32.150827 27.972871
2006-06-02 07:07:33 51°16.5 2°53.963 12.7693 3.79219 32.15812 27.871742
2006-06-02 07:07:37 51°16.51 2°53.948 12.7714 3.793033 32.168729 27.838033
2006-06-02 07:07:43 51°16.526 2°53.926 12.7712 3.793349 32.17304 27.871742
2006-06-02 07:07:49 51°16.542 2°53.905 12.7758 3.793349 32.17304 27.871742
2006-06-02 07:07:53 51°16.553 2°53.89 12.7746 3.793665 32.177351 27.871742
2006-06-02 07:07:57 51°16.564 2°53.875 12.7739 3.793981 32.179672 27.804324
2006-06-02 07:08:03 51°16.58 2°53.854 12.7714 3.794613 32.183651 27.838033
2006-06-02 07:08:09 51°16.597 2°53.831 12.7774 3.795878 32.191608 28.107708
2006-06-02 07:08:14 51°16.61 2°53.812 12.7813 3.796721 32.197575 28.343674
2006-06-02 07:08:18 51°16.621 2°53.797 12.7791 3.796721 32.197575 28.343674
2006-06-02 07:08:24 51°16.637 2°53.775 12.7819 3.721387 31.486219 28.343674
2006-06-02 07:08:29 51°16.651 2°53.757 12.7752 3.799565 32.221778 28.242546
2006-06-02 07:08:34 51°16.665 2°53.738 12.7733 3.799776 32.223103 28.141418
2006-06-02 07:08:39 51°16.678 2°53.719 12.7773 3.800935 32.235374 28.040289
2006-06-02 07:08:44 51°16.692 2°53.7 12.7885 3.802305 32.246314 27.905452
2006-06-02 07:08:49 51°16.705 2°53.681 12.7879 3.802305 32.246314 27.905452
2006-06-02 07:08:53 51°16.716 2°53.666 12.7879 3.80241 32.244651 27.871742
2006-06-02 07:08:59 51°16.733 2°53.642 12.7836 3.803675 32.255924 27.838033
2006-06-02 07:09:04 51°16.747 2°53.625 12.7798 3.804307 32.261228 27.736905
2006-06-02 07:09:09 51°16.761 2°53.606 12.7707 3.804518 32.264547 27.602067
2006-06-02 07:09:13 51°16.772 2°53.591 12.7673 3.804518 32.264547 27.534648
2006-06-02 07:09:19 51°16.789 2°53.569 12.7626 3.804518 32.264547 27.534648
2006-06-02 07:09:23 51°16.801 2°53.555 12.7529 3.804834 32.264207 27.46723
2006-06-02 07:09:29 51°16.818 2°53.533 12.7578 3.805361 32.267187 27.43352
2006-06-02 07:09:34 51°16.832 2°53.515 12.7601 3.805571 32.267847 27.399811
2006-06-02 07:09:39 51°16.846 2°53.496 12.7573 3.805677 32.271501 27.399811
2006-06-02 07:09:44 51°16.86 2°53.477 12.7569 3.80515 32.270516 27.46723
2006-06-02 07:09:49 51°16.874 2°53.459 12.753 3.80515 32.270516 27.46723
2006-06-02 07:09:53 51°16.885 2°53.443 12.7627 3.804834 32.271521 27.46723
2006-06-02 07:09:59 51°16.901 2°53.422 12.7563 3.804623 32.273521 27.46723
2006-06-02 07:10:02 51°16.91 2°53.409 12.7441 3.804096 32.272537 27.500939
2006-06-02 07:10:09 51°16.929 2°53.383 12.7466 3.803675 32.269887 27.500939
2006-06-02 07:10:14 51°16.942 2°53.364 12.739 3.803464 32.269227 27.46723
2006-06-02 07:10:18 51°16.953 2°53.349 12.7362 3.803464 32.269227 27.46723
2006-06-02 07:10:23 51°16.966 2°53.331 12.7368 3.803886 32.274538 27.399811
2006-06-02 07:10:29 51°16.982 2°53.309 12.738 3.804623 32.281506 27.332392
2006-06-02 07:10:33 51°16.993 2°53.294 12.7302 3.805993 32.295111 27.197554
2006-06-02 07:10:39 51°17.009 2°53.271 12.7353 3.807995 32.316024 27.130136
2006-06-02 07:10:42 51°17.017 2°53.261 12.7382 3.810208 32.340266 27.062717
2006-06-02 07:10:47 51°17.031 2°53.242 12.7383 3.810208 32.340266 27.062717
2006-06-02 07:10:54 51°17.051 2°53.217 12.7365 3.813264 32.373819 26.927879
2006-06-02 07:10:59 51°17.066 2°53.198 12.7415 3.81516 32.395089 26.826751
2006-06-02 07:11:04 51°17.08 2°53.18 12.7461 3.817795 32.419996 26.759332
2006-06-02 07:11:09 51°17.094 2°53.162 12.7469 3.82064 32.450916 26.624494
2006-06-02 07:11:13 51°17.105 2°53.147 12.7599 3.822642 32.471192 26.624494
2006-06-02 07:11:18 51°17.119 2°53.128 12.7602 3.822642 32.471192 26.624494
2006-06-02 07:11:24 51°17.136 2°53.106 12.7523 3.824328 32.48647 26.489657
2006-06-02 07:11:29 51°17.15 2°53.087 12.7469 3.826646 32.507059 26.455947
2006-06-02 07:11:33 51°17.161 2°53.072 12.743 3.828226 32.521341 26.422238
2006-06-02 07:11:39 51°17.178 2°53.048 12.7459 3.829385 32.528951 26.32111
2006-06-02 07:11:44 51°17.191 2°53.029 12.7443 3.830755 32.539226 26.253691
2006-06-02 07:11:49 51°17.205 2°53.01 12.7429 3.830755 32.539226 26.253691
2006-06-02 07:11:53 51°17.215 2°52.993 12.7435 3.830439 32.530867 26.253691
2006-06-02 07:11:58 51°17.228 2°52.972 12.74 3.83497 32.573055 26.253691
2006-06-02 07:12:03 51°17.24 2°52.952 12.7261 3.837604 32.599321 26.219982
2006-06-02 07:12:09 51°17.255 2°52.927 12.7182 3.837815 32.605349 26.152563
2006-06-02 07:12:14 51°17.267 2°52.906 12.7175 3.838026 32.607343 26.051435
2006-06-02 07:12:19 51°17.279 2°52.884 12.7067 3.838026 32.607343 26.051435
2006-06-02 07:12:24 51°17.292 2°52.863 12.6963 3.838026 32.608689 26.051435
2006-06-02 07:12:29 51°17.304 2°52.843 12.6884 3.838236 32.610683 25.984016
2006-06-02 07:12:33 51°17.314 2°52.825 12.6875 3.838342 32.614371 26.017725
2006-06-02 07:12:39 51°17.328 2°52.8 12.6981 3.839817 32.633719 26.085144
2006-06-02 07:12:43 51°17.338 2°52.783 12.7011 3.840766 32.648759 26.152563
2006-06-02 07:12:49 51°17.353 2°52.757 12.7025 3.840766 32.648759 26.152563
2006-06-02 07:12:54 51°17.366 2°52.736 12.6978 3.842557 32.67179 26.152563
2006-06-02 07:12:58 51°17.376 2°52.719 12.6949 3.845297 32.703139 26.118853
2006-06-02 07:13:04 51°17.39 2°52.694 12.7064 3.847931 32.736884 26.186272
2006-06-02 07:13:09 51°17.403 2°52.673 12.7304 3.850671 32.768265 26.32111
2006-06-02 07:13:14 51°17.414 2°52.651 12.7236 3.852251 32.781894 26.590785
2006-06-02 07:13:19 51°17.427 2°52.629 12.7021 3.852251 32.781894 26.590785
2006-06-02 07:13:21 51°17.432 2°52.621 12.708 3.854043 32.796845 26.590785
2006-06-02 07:13:29 51°17.452 2°52.586 12.7075 3.855307 32.808832 26.388529
2006-06-02 07:13:33 51°17.461 2°52.569 12.698 3.857099 32.828529 26.253691
2006-06-02 07:13:39 51°17.477 2°52.545 12.7026 3.857836 32.834845 26.253691
2006-06-02 07:13:43 51°17.486 2°52.527 12.7008 3.857309 32.820357 26.253691
2006-06-02 07:13:49 51°17.502 2°52.503 12.7101 3.857309 32.820357 26.253691
2006-06-02 07:13:53 51°17.512 2°52.487 12.7114 3.858047 32.825994 26.219982
2006-06-02 07:13:59 51°17.526 2°52.461 12.7087 3.858363 32.834415 26.2874
2006-06-02 07:14:04 51°17.539 2°52.441 12.7285 3.857626 32.83149 26.422238
2006-06-02 07:14:09 51°17.551 2°52.421 12.7212 3.857309 32.832562 26.523366
2006-06-02 07:14:14 51°17.564 2°52.4 12.7364 3.857099 32.831242 26.523366
2006-06-02 07:14:19 51°17.576 2°52.38 12.7328 3.857099 32.831242 26.523366
2006-06-02 07:14:24 51°17.589 2°52.359 12.7396 3.856572 32.824889 26.590785
2006-06-02 07:14:29 51°17.601 2°52.338 12.7323 3.856045 32.817181 26.523366
2006-06-02 07:14:33 51°17.611 2°52.322 12.7686 3.855834 32.813828 26.523366
2006-06-02 07:14:37 51°17.62 2°52.306 12.7575 3.856361 32.814756 26.489657
2006-06-02 07:14:43 51°17.635 2°52.281 12.7466 3.856256 32.809691 26.489657
2006-06-02 07:14:49 51°17.65 2°52.257 12.748 3.856256 32.809691 26.489657
2006-06-02 07:14:54 51°17.661 2°52.237 12.7289 3.846245 32.706721 26.422238
2006-06-02 07:14:59 51°17.674 2°52.216 12.7193 3.854253 32.775149 26.388529
2006-06-02 07:15:04 51°17.686 2°52.195 12.7341 3.859417 32.821358 26.388529
2006-06-02 07:15:09 51°17.698 2°52.175 12.7247 3.86047 32.825922 26.32111
2006-06-02 07:15:14 51°17.711 2°52.154 12.7212 3.862262 32.841538 26.2874
2006-06-02 07:15:18 51°17.721 2°52.138 12.7198 3.862262 32.841538 26.2874
2006-06-02 07:15:22 51°17.73 2°52.121 12.7002 3.863315 32.84881 26.186272
2006-06-02 07:15:29 51°17.748 2°52.093 12.6921 3.865528 32.873165 26.085144
2006-06-02 07:15:33 51°17.757 2°52.076 12.689 3.868373 32.91167 25.916597
2006-06-02 07:15:38 51°17.769 2°52.056 12.6962 3.871535 32.94368 25.882888
2006-06-02 07:15:44 51°17.784 2°52.03 12.6916 3.873326 32.962027 25.815469
2006-06-02 07:15:49 51°17.796 2°52.01 12.6936 3.873326 32.962027 25.815469
2006-06-02 07:15:53 51°17.806 2°51.992 12.6887 3.875961 32.98769 25.74805
2006-06-02 07:15:59 51°17.82 2°51.967 12.6924 3.878279 33.017176 25.646922
2006-06-02 07:16:04 51°17.832 2°51.945 12.6881 3.88144 33.056044 25.545794
2006-06-02 07:16:09 51°17.844 2°51.924 12.6883 3.882494 33.071512 25.545794
2006-06-02 07:16:13 51°17.854 2°51.908 12.685 3.884496 33.093938 25.512084
2006-06-02 07:16:18 51°17.866 2°51.888 12.6929 3.884496 33.093938 25.512084
2006-06-02 07:16:24 51°17.882 2°51.863 12.6868 3.885656 33.105628 25.478375
2006-06-02 07:16:29 51°17.894 2°51.842 12.7024 3.886499 33.117055 25.444665
2006-06-02 07:16:34 51°17.906 2°51.822 12.6922 3.884813 33.102412 25.478375
2006-06-02 07:16:38 51°17.916 2°51.806 12.6972 3.889449 33.147818 25.478375
2006-06-02 07:16:43 51°17.929 2°51.785 12.7048 3.890292 33.157196 25.478375
2006-06-02 07:16:49 51°17.943 2°51.762 12.6985 3.890292 33.157196 25.478375
2006-06-02 07:16:53 51°17.954 2°51.746 12.6974 3.891135 33.165205 25.478375
2006-06-02 07:16:57 51°17.963 2°51.729 12.693 3.891873 33.171526 25.478375
2006-06-02 07:17:04 51°17.981 2°51.7 12.6902 3.892716 33.177478 25.478375
2006-06-02 07:17:09 51°17.993 2°51.679 12.694 3.892927 33.17948 25.512084
2006-06-02 07:17:13 51°18.003 2°51.664 12.6967 3.893454 33.183113 25.545794
2006-06-02 07:17:17 51°18.014 2°51.647 12.6979 3.893454 33.183113 25.545794
2006-06-02 07:17:24 51°18.031 2°51.619 12.6998 3.894086 33.186376 25.545794
2006-06-02 07:17:29 51°18.044 2°51.598 12.6993 3.894402 33.188007 25.512084
2006-06-02 07:17:34 51°18.056 2°51.578 12.6996 3.89535 33.201133 25.545794
2006-06-02 07:17:39 51°18.069 2°51.557 12.7094 3.896299 33.210143 25.512084
2006-06-02 07:17:44 51°18.081 2°51.536 12.7088 3.897037 33.217151 25.545794
2006-06-02 07:17:49 51°18.093 2°51.516 12.7046 3.897037 33.217151 25.545794
2006-06-02 07:17:54 51°18.106 2°51.496 12.7077 3.897563 33.22147 25.512084
2006-06-02 07:17:58 51°18.116 2°51.48 12.7068 3.897774 33.222099 25.545794
2006-06-02 07:18:02 51°18.126 2°51.464 12.7078 3.897774 33.222099 25.545794
2006-06-02 07:18:09 51°18.144 2°51.436 12.7067 3.897669 33.219725 25.545794
2006-06-02 07:18:13 51°18.155 2°51.421 12.7074 3.898828 33.225931 25.579503
2006-06-02 07:18:18 51°18.168 2°51.401 12.7054 3.898828 33.225931 25.579503
2006-06-02 07:18:24 51°18.183 2°51.378 12.7134 3.898828 33.222498 25.545794
2006-06-02 07:18:29 51°18.196 2°51.358 12.711 3.899355 33.228189 25.545794
2006-06-02 07:18:33 51°18.206 2°51.343 12.7202 3.899565 33.230191 25.545794
2006-06-02 07:18:38 51°18.219 2°51.324 12.7143 3.900514 33.237827 25.579503
2006-06-02 07:18:43 51°18.233 2°51.304 12.7257 3.901146 33.244519 25.579503
2006-06-02 07:18:49 51°18.248 2°51.283 12.7169 3.901146 33.244519 25.579503
2006-06-02 07:18:54 51°18.26 2°51.265 12.7086 3.901252 33.246207 25.545794
2006-06-02 07:18:59 51°18.272 2°51.249 12.7159 3.901884 33.251527 25.579503
2006-06-02 07:19:04 51°18.283 2°51.232 12.7166 3.901462 33.246836 25.545794
2006-06-02 07:19:09 51°18.295 2°51.216 12.7095 3.901884 33.246718 25.545794
2006-06-02 07:19:14 51°18.306 2°51.201 12.7059 3.902516 33.25135 25.579503
2006-06-02 07:19:18 51°18.314 2°51.189 12.7029 3.902516 33.25135 25.579503
2006-06-02 07:19:23 51°18.325 2°51.176 12.708 3.901673 33.242656 25.579503
2006-06-02 07:19:29 51°18.337 2°51.159 12.7019 3.902411 33.251036 25.613212
2006-06-02 07:19:34 51°18.346 2°51.146 12.7032 3.902832 33.254352 25.613212
2006-06-02 07:19:39 51°18.355 2°51.134 12.7007 3.902305 33.250035 25.613212
2006-06-02 07:19:44 51°18.363 2°51.122 12.7077 3.9022 33.251782 25.579503
2006-06-02 07:19:48 51°18.369 2°51.113 12.7108 3.9022 33.251782 25.579503
2006-06-02 07:19:53 51°18.377 2°51.102 12.7096 3.901778 33.249152 25.646922
2006-06-02 07:19:57 51°18.383 2°51.094 12.7091 3.901462 33.246836 25.613212
2006-06-02 07:20:04 51°18.392 2°51.08 12.7037 3.901252 33.246894 25.646922
2006-06-02 07:20:09 51°18.399 2°51.071 12.7003 3.900409 33.24026 25.680631
2006-06-02 07:20:14 51°18.405 2°51.063 12.7026 3.900303 33.242006 25.680631
2006-06-02 07:20:18 51°18.41 2°51.056 12.7078 3.900303 33.242006 25.680631
2006-06-02 07:20:24 51°18.416 2°51.047 12.7047 3.899671 33.234626 25.680631
2006-06-02 07:20:29 51°18.422 2°51.04 12.7018 3.899882 33.233881 25.680631
2006-06-02 07:20:33 51°18.426 2°51.034 12.7062 3.89946 33.22919 25.714341
2006-06-02 07:20:37 51°18.43 2°51.029 12.7079 3.899144 33.226874 25.74805
2006-06-02 07:20:44 51°18.437 2°51.021 12.7066 3.899355 33.230249 25.74805
2006-06-02 07:20:49 51°18.442 2°51.015 12.714 3.899355 33.230249 25.74805
2006-06-02 07:20:54 51°18.447 2°51.01 12.712 3.899039 33.227933 25.74805
2006-06-02 07:20:58 51°18.451 2°51.007 12.7121 3.898933 33.224872 25.815469
2006-06-02 07:21:04 51°18.456 2°51.002 12.7128 3.898722 33.223557 25.74805
2006-06-02 07:21:09 51°18.46 2°50.999 12.7151 3.899039 33.225873 25.714341
2006-06-02 07:21:14 51°18.463 2°50.996 12.7168 3.899249 33.227875 25.714341
2006-06-02 07:21:19 51°18.465 2°50.995 12.7181 3.899249 33.227875 25.714341
2006-06-02 07:21:24 51°18.467 2°50.994 12.7197 3.899355 33.227503 25.74805
2006-06-02 07:21:29 51°18.468 2°50.993 12.7209 3.899249 33.225129 25.714341
2006-06-02 07:21:33 51°18.469 2°50.993 12.7231 3.89946 33.225758 25.646922
2006-06-02 07:21:38 51°18.469 2°50.992 12.7245 3.899882 33.227702 25.680631
2006-06-02 07:21:43 51°18.469 2°50.992 12.7279 3.900092 33.228331 25.613212
2006-06-02 07:21:49 51°18.47 2°50.991 12.7286 3.900092 33.228331 25.613212
2006-06-02 07:21:54 51°18.47 2°50.991 12.7324 3.900408 33.230647 25.579503
2006-06-02 07:21:59 51°18.47 2°50.99 12.7256 3.900619 33.231962 25.545794
2006-06-02 07:22:03 51°18.471 2°50.99 12.7257 3.901462 33.238595 25.512084
2006-06-02 07:22:09 51°18.471 2°50.989 12.7271 3.901357 33.236221 25.512084
2006-06-02 07:22:14 51°18.471 2°50.988 12.7289 3.901357 33.234162 25.512084
2006-06-02 07:22:18 51°18.472 2°50.988 12.727 3.901357 33.234162 25.512084
2006-06-02 07:22:24 51°18.472 2°50.987 12.7284 3.901884 33.237792 25.512084
2006-06-02 07:22:29 51°18.473 2°50.987 12.7265 3.901251 33.22973 25.512084
2006-06-02 07:22:34 51°18.473 2°50.986 12.7312 3.9022 33.238735 25.512084
2006-06-02 07:22:38 51°18.473 2°50.986 12.7291 3.902305 33.239735 25.512084
2006-06-02 07:22:44 51°18.474 2°50.985 12.7228 3.902621 33.242737 25.512084
2006-06-02 07:22:49 51°18.474 2°50.985 12.7226 3.902621 33.242737 25.512084
2006-06-02 07:22:54 51°18.474 2°50.984 12.7245 3.90241 33.240049 25.545794
2006-06-02 07:23:00 51°18.474 2°50.984 12.721 3.902305 33.239049 25.512084
2006-06-02 07:23:04 51°18.475 2°50.983 12.7234 3.902621 33.242051 25.512084
2006-06-02 07:23:09 51°18.475 2°50.982 12.7206 3.902305 33.240422 25.478375
2006-06-02 07:23:14 51°18.476 2°50.982 12.7245 3.902305 33.239735 25.512084
2006-06-02 07:23:19 51°18.476 2°50.981 12.7244 3.902305 33.239735 25.512084
2006-06-02 07:23:24 51°18.476 2°50.981 12.723 3.902621 33.24411 25.512084
2006-06-02 07:23:29 51°18.476 2°50.98 12.7242 3.902411 33.242795 25.512084
2006-06-02 07:23:34 51°18.477 2°50.98 12.7241 3.902832 33.246798 25.478375
2006-06-02 07:23:39 51°18.477 2°50.98 12.7242 3.902411 33.243482 25.512084
2006-06-02 07:23:44 51°18.477 2°50.979 12.7226 3.902094 33.239793 25.512084
2006-06-02 07:23:49 51°18.478 2°50.978 12.7225 3.902094 33.239793 25.512084
2006-06-02 07:23:54 51°18.478 2°50.978 12.7235 3.902832 33.245425 25.478375
2006-06-02 07:23:59 51°18.478 2°50.977 12.724 3.902727 33.246484 25.478375
2006-06-02 07:24:04 51°18.479 2°50.978 12.7206 3.902516 33.244482 25.512084
2006-06-02 07:24:09 51°18.479 2°50.977 12.7204 3.902832 33.246111 25.478375
2006-06-02 07:24:14 51°18.48 2°50.976 12.7204 3.9022 33.240794 25.512084
2006-06-02 07:24:18 51°18.48 2°50.976 12.7227 3.9022 33.240794 25.512084
2006-06-02 07:24:24 51°18.48 2°50.976 12.7214 3.902411 33.242795 25.478375
2006-06-02 07:24:29 51°18.48 2°50.976 12.72 3.902411 33.242795 25.478375
2006-06-02 07:24:34 51°18.481 2°50.975 12.7212 3.902094 33.24048 25.444665
2006-06-02 07:24:39 51°18.481 2°50.975 12.7176 3.902411 33.244855 25.512084
2006-06-02 07:24:44 51°18.482 2°50.975 12.7215 3.9022 33.242167 25.478375
2006-06-02 07:24:49 51°18.482 2°50.974 12.7253 3.9022 33.242167 25.478375
2006-06-02 07:24:53 51°18.482 2°50.974 12.726 3.902516 33.245856 25.478375
2006-06-02 07:24:59 51°18.482 2°50.973 12.7265 3.902621 33.24617 25.478375
2006-06-02 07:25:03 51°18.482 2°50.973 12.7248 3.902411 33.246228 25.444665
2006-06-02 07:25:09 51°18.483 2°50.972 12.7292 3.9022 33.244227 25.444665
2006-06-02 07:25:13 51°18.483 2°50.972 12.7302 3.902411 33.246228 25.410956
2006-06-02 07:25:18 51°18.483 2°50.972 12.7249 3.902411 33.246228 25.410956
2006-06-02 07:25:24 51°18.483 2°50.971 12.7299 3.902516 33.245856 25.478375
2006-06-02 07:25:29 51°18.484 2°50.97 12.7263 3.902621 33.245483 25.444665
2006-06-02 07:25:34 51°18.484 2°50.97 12.728 3.902727 33.245111 25.410956
2006-06-02 07:25:39 51°18.484 2°50.97 12.7277 3.903043 33.248113 25.410956
2006-06-02 07:25:44 51°18.484 2°50.97 12.7297 3.903359 33.249741 25.444665
2006-06-02 07:25:49 51°18.485 2°50.969 12.7219 3.903359 33.249741 25.444665
2006-06-02 07:25:54 51°18.485 2°50.968 12.7227 3.902937 33.245739 25.444665
2006-06-02 07:25:58 51°18.485 2°50.968 12.7249 3.902832 33.243365 25.410956
2006-06-02 07:26:03 51°18.486 2°50.968 12.7229 3.903148 33.247053 25.410956
2006-06-02 07:26:08 51°18.486 2°50.967 12.722 3.903148 33.24774 25.377247
2006-06-02 07:26:14 51°18.487 2°50.967 12.7282 3.903148 33.24774 25.377247
2006-06-02 07:26:18 51°18.486 2°50.966 12.7256 3.903148 33.24774 25.377247
2006-06-02 07:26:23 51°18.487 2°50.967 12.7292 3.902832 33.245425 25.377247
2006-06-02 07:26:28 51°18.487 2°50.966 12.7266 3.903043 33.248113 25.343537
2006-06-02 07:26:34 51°18.487 2°50.965 12.7273 3.902937 33.247112 25.377247
2006-06-02 07:26:39 51°18.487 2°50.964 12.7268 3.903043 33.248799 25.377247
2006-06-02 07:26:44 51°18.487 2°50.964 12.7276 3.903464 33.252802 25.309828
2006-06-02 07:26:49 51°18.488 2°50.963 12.728 3.903464 33.252802 25.309828
2006-06-02 07:26:54 51°18.488 2°50.963 12.7243 3.903675 33.25343 25.343537
2006-06-02 07:26:57 51°18.488 2°50.962 12.7281 3.903043 33.247426 25.343537
2006-06-02 07:27:04 51°18.488 2°50.962 12.7235 3.902937 33.246425 25.343537
2006-06-02 07:27:09 51°18.489 2°50.961 12.7234 3.903043 33.246739 25.309828
2006-06-02 07:27:14 51°18.489 2°50.961 12.7335 3.902937 33.245739 25.377247
2006-06-02 07:27:19 51°18.489 2°50.961 12.73 3.902937 33.245739 25.377247
2006-06-02 07:27:24 51°18.489 2°50.96 12.7265 3.902937 33.245739 25.343537
2006-06-02 07:27:28 51°18.489 2°50.959 12.7306 3.903148 33.248427 25.309828
2006-06-02 07:27:33 51°18.49 2°50.959 12.7277 3.902937 33.245739 25.309828
2006-06-02 07:27:39 51°18.49 2°50.958 12.7265 3.902832 33.246111 25.309828
2006-06-02 07:27:44 51°18.49 2°50.958 12.7267 3.903254 33.249427 25.343537
2006-06-02 07:27:49 51°18.49 2°50.957 12.7228 3.903254 33.249427 25.343537
2006-06-02 07:27:54 51°18.49 2°50.957 12.7239 3.903254 33.248054 25.309828
2006-06-02 07:27:59 51°18.491 2°50.957 12.7249 3.902937 33.244366 25.276118
2006-06-02 07:28:04 51°18.491 2°50.956 12.7236 3.903148 33.24568 25.276118
2006-06-02 07:28:09 51°18.492 2°50.956 12.7257 3.903254 33.248054 25.343537
2006-06-02 07:28:13 51°18.492 2°50.955 12.7254 3.903254 33.248054 25.309828
2006-06-02 07:28:17 51°18.492 2°50.955 12.7259 3.903254 33.248054 25.309828
2006-06-02 07:28:24 51°18.492 2°50.954 12.7274 3.903148 33.24774 25.309828
2006-06-02 07:28:29 51°18.493 2°50.954 12.7259 3.903043 33.248113 25.276118
2006-06-02 07:28:34 51°18.493 2°50.953 12.7234 3.903359 33.251115 25.309828
2006-06-02 07:28:39 51°18.493 2°50.952 12.7259 3.903148 33.2498 25.276118
2006-06-02 07:28:44 51°18.493 2°50.952 12.7242 3.903464 33.251428 25.276118
2006-06-02 07:28:48 51°18.493 2°50.951 12.7281 3.903464 33.251428 25.276118
2006-06-02 07:28:53 51°18.494 2°50.951 12.7259 3.903148 33.248427 25.309828
2006-06-02 07:28:58 51°18.494 2°50.95 12.7256 3.903043 33.247426 25.309828
2006-06-02 07:29:01 51°18.494 2°50.95 12.7288 3.903359 33.250428 25.276118
2006-06-02 07:29:09 51°18.495 2°50.949 12.7277 3.90378 33.25443 25.276118
2006-06-02 07:29:13 51°18.495 2°50.949 12.728 3.902727 33.244424 25.309828
2006-06-02 07:29:18 51°18.495 2°50.948 12.7234 3.902727 33.244424 25.309828
2006-06-02 07:29:24 51°18.495 2°50.948 12.7255 3.902937 33.246425 25.309828
2006-06-02 07:29:29 51°18.495 2°50.947 12.7256 3.903675 33.25343 25.242409
2006-06-02 07:29:34 51°18.496 2°50.946 12.7271 3.903148 33.249113 25.276118
2006-06-02 07:29:38 51°18.496 2°50.946 12.7296 3.903148 33.248427 25.242409
2006-06-02 07:29:44 51°18.497 2°50.945 12.7317 3.902832 33.245425 25.242409
2006-06-02 07:29:49 51°18.496 2°50.944 12.7292 3.902832 33.245425 25.242409
2006-06-02 07:29:54 51°18.497 2°50.944 12.7323 3.903043 33.247426 25.276118
2006-06-02 07:29:59 51°18.497 2°50.943 12.7326 3.903464 33.252115 25.2087
2006-06-02 07:30:03 51°18.497 2°50.942 12.7318 3.903886 33.256805 25.242409
2006-06-02 07:30:09 51°18.497 2°50.942 12.7312 3.903148 33.249113 25.2087
2006-06-02 07:30:14 51°18.498 2°50.941 12.7378 3.903254 33.248054 25.242409
2006-06-02 07:30:17 51°18.498 2°50.941 12.7309 3.903254 33.248054 25.242409
2006-06-02 07:30:22 51°18.498 2°50.94 12.7327 3.903043 33.243307 25.2087
2006-06-02 07:30:29 51°18.499 2°50.937 12.7301 3.903253 33.245308 25.2087
2006-06-02 07:30:33 51°18.5 2°50.936 12.7291 3.903675 33.247937 25.2087
2006-06-02 07:30:39 51°18.501 2°50.933 12.728 3.903675 33.247937 25.2087
2006-06-02 07:30:42 51°18.501 2°50.931 12.7296 3.903675 33.248624 25.2087
2006-06-02 07:30:49 51°18.504 2°50.927 12.73 3.903675 33.248624 25.2087
2006-06-02 07:30:54 51°18.505 2°50.923 12.7301 3.903464 33.244563 25.242409
2006-06-02 07:30:59 51°18.507 2°50.919 12.7332 3.903991 33.250939 25.2087
2006-06-02 07:31:04 51°18.509 2°50.916 12.7449 3.903464 33.245936 25.2087
2006-06-02 07:31:09 51°18.511 2°50.912 12.7475 3.90378 33.250311 25.242409
2006-06-02 07:31:14 51°18.514 2°50.907 12.7455 3.903886 33.251998 25.242409
2006-06-02 07:31:17 51°18.517 2°50.903 12.7516 3.903886 33.251998 25.242409
2006-06-02 07:31:24 51°18.523 2°50.896 12.7532 3.903675 33.249997 25.17499
2006-06-02 07:31:29 51°18.529 2°50.891 12.7592 3.903464 33.247309 25.2087
2006-06-02 07:31:34 51°18.535 2°50.886 12.7659 3.903043 33.242621 25.17499
2006-06-02 07:31:39 51°18.543 2°50.881 12.7697 3.903991 33.248193 25.2087
2006-06-02 07:31:44 51°18.551 2°50.878 12.7769 3.904307 33.247076 25.17499
2006-06-02 07:31:48 51°18.557 2°50.876 12.7799 3.904307 33.247076 25.17499
2006-06-02 07:31:53 51°18.567 2°50.874 12.7822 3.904834 33.249332 25.2087
2006-06-02 07:31:57 51°18.575 2°50.874 12.7869 3.904412 33.241214 25.141281
2006-06-02 07:32:04 51°18.589 2°50.876 12.7873 3.905677 33.249099 25.141281
2006-06-02 07:32:09 51°18.6 2°50.881 12.7921 3.905466 33.241612 25.107571
2006-06-02 07:32:14 51°18.611 2°50.887 12.7904 3.906731 33.248808 25.073862
2006-06-02 07:32:18 51°18.619 2°50.895 12.7935 3.906731 33.248808 25.073862
2006-06-02 07:32:24 51°18.631 2°50.908 12.7904 3.906836 33.243637 24.972734
2006-06-02 07:32:29 51°18.641 2°50.921 12.7913 3.90652 33.236526 25.006443
2006-06-02 07:32:33 51°18.649 2°50.934 12.7978 3.907047 33.237411 24.972734
2006-06-02 07:32:38 51°18.657 2°50.951 12.8065 3.906836 33.231301 24.905315
2006-06-02 07:32:44 51°18.666 2°50.974 12.8098 3.907046 33.23056 24.871606
2006-06-02 07:32:49 51°18.673 2°50.994 12.8153 3.907046 33.23056 24.871606
2006-06-02 07:32:53 51°18.679 2°51.011 12.8204 3.907257 33.230503 24.871606
2006-06-02 07:32:57 51°18.685 2°51.028 12.8251 3.906941 33.226136 24.837896
2006-06-02 07:33:01 51°18.691 2°51.046 12.8259 3.906625 33.223824 24.905315
2006-06-02 07:33:09 51°18.703 2°51.084 12.8371 3.905466 33.210782 24.837896
2006-06-02 07:33:13 51°18.71 2°51.102 12.8369 3.904728 33.199 24.871606
2006-06-02 07:33:17 51°18.716 2°51.121 12.8388 3.904728 33.199 24.871606
2006-06-02 07:33:21 51°18.723 2°51.14 12.8353 3.903885 33.184857 24.871606
2006-06-02 07:33:29 51°18.736 2°51.18 12.8344 3.902726 33.169774 24.905315
2006-06-02 07:33:33 51°18.742 2°51.199 12.8325 3.901461 33.153014 24.972734
2006-06-02 07:33:37 51°18.748 2°51.22 12.8324 3.900302 33.138623 25.006443
2006-06-02 07:33:44 51°18.758 2°51.256 12.8323 3.89988 33.130538 24.972734
2006-06-02 07:33:49 51°18.764 2°51.282 12.8184 3.89988 33.130538 24.972734
2006-06-02 07:33:54 51°18.769 2°51.308 12.8041 3.900196 33.129439 25.006443
2006-06-02 07:33:59 51°18.774 2°51.335 12.806 3.899459 33.119728 25.040153
2006-06-02 07:34:04 51°18.779 2°51.362 12.8004 3.899248 33.11637 25.073862
2006-06-02 07:34:09 51°18.783 2°51.389 12.7998 3.898405 33.109071 25.107571
2006-06-02 07:34:13 51°18.786 2°51.411 12.8022 3.897878 33.104765 25.107571
2006-06-02 07:34:18 51°18.79 2°51.439 12.7937 3.897878 33.104765 25.107571
2006-06-02 07:34:24 51°18.796 2°51.471 12.7869 3.898089 33.111531 25.141281
2006-06-02 07:34:29 51°18.799 2°51.498 12.7831 3.897983 33.118715 25.17499
2006-06-02 07:34:34 51°18.804 2°51.525 12.7796 3.897351 33.118183 25.17499
2006-06-02 07:34:38 51°18.807 2°51.547 12.7806 3.896403 33.113975 25.17499
2006-06-02 07:34:44 51°18.812 2°51.58 12.7652 3.895033 33.103727 25.2087
2006-06-02 07:34:49 51°18.817 2°51.607 12.7709 3.895033 33.103727 25.2087
2006-06-02 07:34:54 51°18.821 2°51.634 12.7689 3.893768 33.094476 25.17499
2006-06-02 07:34:59 51°18.825 2°51.662 12.7688 3.891977 33.080914 25.242409
2006-06-02 07:35:03 51°18.829 2°51.684 12.7667 3.890713 33.074387 25.242409
2006-06-02 07:35:09 51°18.834 2°51.716 12.7684 3.88987 33.071172 25.2087
2006-06-02 07:35:13 51°18.838 2°51.738 12.7702 3.888605 33.061916 25.309828
2006-06-02 07:35:17 51°18.841 2°51.76 12.766 3.888605 33.061916 25.309828
2006-06-02 07:35:24 51°18.847 2°51.799 12.7683 3.887551 33.057383 25.276118
2006-06-02 07:35:29 51°18.852 2°51.825 12.7684 3.885971 33.045129 25.2087
2006-06-02 07:35:34 51°18.856 2°51.853 12.7675 3.885128 33.038502 25.242409
2006-06-02 07:35:39 51°18.861 2°51.88 12.762 3.882915 33.017532 25.17499
2006-06-02 07:35:41 51°18.863 2°51.891 12.7602 3.882072 33.010224 25.17499
2006-06-02 07:35:48 51°18.87 2°51.929 12.7575 3.882072 33.010224 25.17499
2006-06-02 07:35:54 51°18.876 2°51.961 12.7574 3.881334 33.003915 25.107571
2006-06-02 07:35:59 51°18.882 2°51.988 12.7608 3.880281 32.99393 25.107571
2006-06-02 07:36:03 51°18.886 2°52.009 12.7627 3.879016 32.981948 25.073862
2006-06-02 07:36:08 51°18.891 2°52.036 12.7599 3.879016 32.983308 25.073862
2006-06-02 07:36:14 51°18.897 2°52.068 12.7588 3.878278 32.979039 25.040153
2006-06-02 07:36:19 51°18.902 2°52.095 12.7607 3.878278 32.979039 25.040153
2006-06-02 07:36:24 51°18.906 2°52.122 12.7612 3.878068 32.981124 25.006443
2006-06-02 07:36:29 51°18.912 2°52.148 12.7621 3.878068 32.981124 24.972734
2006-06-02 07:36:34 51°18.916 2°52.175 12.7597 3.878173 32.982122 24.905315
2006-06-02 07:36:39 51°18.921 2°52.202 12.7661 3.878068 32.979763 24.837896
2006-06-02 07:36:44 51°18.926 2°52.228 12.7741 3.877752 32.976767 24.804187
2006-06-02 07:36:49 51°18.932 2°52.255 12.7738 3.877752 32.976767 24.804187
2006-06-02 07:36:53 51°18.936 2°52.276 12.7786 3.878805 32.986754 24.770477
2006-06-02 07:36:57 51°18.94 2°52.297 12.7827 3.878489 32.983758 24.703059
2006-06-02 07:37:04 51°18.947 2°52.335 12.7908 3.879648 32.994743 24.63564
2006-06-02 07:37:09 51°18.952 2°52.361 12.7972 3.879648 32.994062 24.63564
2006-06-02 07:37:14 51°18.957 2°52.388 12.7998 3.879332 32.989025 24.60193
2006-06-02 07:37:19 51°18.962 2°52.414 12.7988 3.879332 32.989025 24.60193
2006-06-02 07:37:24 51°18.967 2°52.441 12.7994 3.879438 32.986622 24.568221
2006-06-02 07:37:29 51°18.973 2°52.467 12.8046 3.879648 32.985218 24.60193
2006-06-02 07:37:34 51°18.978 2°52.494 12.8083 3.880913 32.993117 24.534512
2006-06-02 07:37:38 51°18.981 2°52.515 12.8084 3.880596 32.985362 24.568221
2006-06-02 07:37:42 51°18.986 2°52.536 12.8127 3.879964 32.973256 24.568221
2006-06-02 07:37:49 51°18.993 2°52.573 12.8086 3.879964 32.973256 24.568221
2006-06-02 07:37:53 51°18.997 2°52.594 12.8103 3.879226 32.962874 24.568221
2006-06-02 07:37:58 51°19.002 2°52.621 12.8075 3.878383 32.952855 24.60193
2006-06-02 07:38:04 51°19.008 2°52.653 12.8094 3.87733 32.939484 24.63564
2006-06-02 07:38:09 51°19.014 2°52.679 12.8082 3.876592 32.92911 24.63564
2006-06-02 07:38:13 51°19.017 2°52.701 12.8096 3.875011 32.912115 24.703059
2006-06-02 07:38:18 51°19.022 2°52.727 12.8115 3.875011 32.912115 24.703059
2006-06-02 07:38:22 51°19.025 2°52.748 12.8121 3.874379 32.904098 24.703059
2006-06-02 07:38:29 51°19.032 2°52.785 12.8081 3.873852 32.901145 24.770477
2006-06-02 07:38:33 51°19.037 2°52.806 12.8101 3.872588 32.887824 24.804187
2006-06-02 07:38:38 51°19.042 2°52.833 12.7971 3.871112 32.874542 24.837896
2006-06-02 07:38:44 51°19.048 2°52.865 12.7947 3.869742 32.860903 24.905315
2006-06-02 07:38:49 51°19.053 2°52.891 12.7952 3.869742 32.860903 24.905315
2006-06-02 07:38:53 51°19.057 2°52.912 12.7879 3.867951 32.843278 24.939024
2006-06-02 07:38:59 51°19.064 2°52.944 12.7903 3.866265 32.826652 25.006443
2006-06-02 07:39:04 51°19.069 2°52.97 12.794 3.864052 32.805044 25.006443
2006-06-02 07:39:09 51°19.076 2°52.996 12.7999 3.862893 32.796106 25.107571
2006-06-02 07:39:14 51°19.082 2°53.022 12.8127 3.860996 32.783568 25.141281
2006-06-02 07:39:19 51°19.088 2°53.048 12.8143 3.860996 32.783568 25.141281
2006-06-02 07:39:24 51°19.094 2°53.073 12.8193 3.86068 32.782603 25.17499
2006-06-02 07:39:29 51°19.1 2°53.099 12.8292 3.85931 32.774371 25.17499
2006-06-02 07:39:33 51°19.105 2°53.12 12.8267 3.857835 32.763114 25.17499
2006-06-02 07:39:38 51°19.111 2°53.146 12.8363 3.856676 32.750798 25.17499
2006-06-02 07:39:44 51°19.118 2°53.177 12.8345 3.855517 32.735786 25.17499
2006-06-02 07:39:48 51°19.122 2°53.197 12.8377 3.855517 32.735786 25.17499
2006-06-02 07:39:54 51°19.128 2°53.229 12.8373 3.854779 32.723416 25.2087
2006-06-02 07:39:59 51°19.134 2°53.255 12.8335 3.853199 32.70308 25.242409
2006-06-02 07:40:04 51°19.139 2°53.281 12.8281 3.852145 32.687059 25.276118
2006-06-02 07:40:09 51°19.144 2°53.308 12.8272 3.851618 32.678042 25.377247
2006-06-02 07:40:14 51°19.149 2°53.334 12.8306 3.850353 32.661386 25.478375
2006-06-02 07:40:19 51°19.155 2°53.36 12.8251 3.850353 32.661386 25.478375
2006-06-02 07:40:24 51°19.159 2°53.386 12.8241 3.849299 32.646725 25.545794
2006-06-02 07:40:29 51°19.164 2°53.413 12.8246 3.848351 32.636423 25.646922
2006-06-02 07:40:34 51°19.169 2°53.439 12.8289 3.848035 32.634108 25.714341
2006-06-02 07:40:39 51°19.174 2°53.465 12.8255 3.846665 32.622511 25.74805
2006-06-02 07:40:44 51°19.179 2°53.492 12.8281 3.845295 32.610913 25.815469
2006-06-02 07:40:49 51°19.184 2°53.518 12.8309 3.845295 32.610913 25.815469
2006-06-02 07:40:53 51°19.188 2°53.539 12.8347 3.844347 32.603297 25.849178
2006-06-02 07:40:59 51°19.195 2°53.57 12.8382 3.843715 32.597996 25.882888
2006-06-02 07:41:04 51°19.2 2°53.597 12.8416 3.842556 32.589059 25.882888
2006-06-02 07:41:09 51°19.205 2°53.623 12.8395 3.840659 32.570472 25.950306
2006-06-02 07:41:13 51°19.209 2°53.645 12.8459 3.839289 32.558204 25.950306
2006-06-02 07:41:18 51°19.215 2°53.671 12.8382 3.839289 32.558204 25.950306
2006-06-02 07:41:24 51°19.221 2°53.703 12.8355 3.838341 32.547907 25.950306
2006-06-02 07:41:29 51°19.227 2°53.729 12.8303 3.837498 32.537937 26.017725
2006-06-02 07:41:33 51°19.231 2°53.75 12.8323 3.837287 32.532599 26.017725
2006-06-02 07:41:38 51°19.237 2°53.776 12.8259 3.836444 32.521963 26.051435
2006-06-02 07:41:44 51°19.243 2°53.808 12.831 3.836128 32.51764 26.118853
2006-06-02 07:41:49 51°19.249 2°53.834 12.8275 3.836128 32.51764 26.118853
2006-06-02 07:41:53 51°19.252 2°53.856 12.8232 3.836128 32.516971 26.085144
2006-06-02 07:41:58 51°19.258 2°53.882 12.8209 3.835074 32.508361 26.152563
2006-06-02 07:42:03 51°19.263 2°53.909 12.8202 3.834863 32.509047 26.152563
2006-06-02 07:42:09 51°19.27 2°53.941 12.822 3.834863 32.509716 26.118853
2006-06-02 07:42:14 51°19.275 2°53.967 12.82 3.834126 32.50409 26.152563
2006-06-02 07:42:19 51°19.281 2°53.993 12.8256 3.834126 32.50409 26.152563
2006-06-02 07:42:24 51°19.286 2°54.021 12.8282 3.834969 32.512718 26.085144
2006-06-02 07:42:29 51°19.292 2°54.047 12.8324 3.834547 32.510077 26.017725
2006-06-02 07:42:34 51°19.298 2°54.073 12.8381 3.835496 32.522378 26.017725
2006-06-02 07:42:38 51°19.303 2°54.095 12.8452 3.835285 32.522396 25.882888
2006-06-02 07:42:44 51°19.31 2°54.127 12.8478 3.836444 32.534012 25.849178
2006-06-02 07:42:48 51°19.314 2°54.149 12.849 3.836444 32.534012 25.849178
2006-06-02 07:42:54 51°19.321 2°54.18 12.8567 3.838025 32.550281 25.815469
2006-06-02 07:42:59 51°19.327 2°54.208 12.8538 3.838236 32.550262 25.781759
2006-06-02 07:43:04 51°19.333 2°54.234 12.8597 3.839395 32.557859 25.849178
2006-06-02 07:43:09 51°19.339 2°54.261 12.8587 3.840659 32.56444 25.815469
2006-06-02 07:43:14 51°19.345 2°54.288 12.8579 3.843715 32.589276 25.882888
2006-06-02 07:43:17 51°19.348 2°54.304 12.8653 3.843715 32.589276 25.882888
2006-06-02 07:43:24 51°19.356 2°54.341 12.8621 3.845506 32.602169 25.882888
2006-06-02 07:43:29 51°19.362 2°54.369 12.8632 3.84677 32.610085 25.984016
2006-06-02 07:43:34 51°19.367 2°54.396 12.8676 3.848772 32.626306 26.051435
2006-06-02 07:43:39 51°19.373 2°54.423 12.8499 3.849405 32.629592 26.118853
2006-06-02 07:43:44 51°19.378 2°54.45 12.8462 3.850142 32.635214 26.152563
2006-06-02 07:43:49 51°19.383 2°54.477 12.8449 3.850142 32.635214 26.152563
2006-06-02 07:43:53 51°19.387 2°54.499 12.8438 3.850458 32.636856 26.186272
2006-06-02 07:43:58 51°19.394 2°54.525 12.8445 3.85088 32.638822 26.219982
2006-06-02 07:44:04 51°19.401 2°54.557 12.8457 3.85088 32.63748 26.186272
2006-06-02 07:44:09 51°19.406 2°54.584 12.8439 3.850774 32.636485 26.253691
2006-06-02 07:44:14 51°19.412 2°54.611 12.8424 3.849826 32.630887 26.32111
2006-06-02 07:44:19 51°19.419 2°54.637 12.8433 3.849826 32.630887 26.32111
2006-06-02 07:44:22 51°19.422 2°54.654 12.8431 3.849405 32.631605 26.354819
2006-06-02 07:44:29 51°19.431 2°54.691 12.8423 3.848456 32.626676 26.388529
2006-06-02 07:44:33 51°19.435 2°54.712 12.8459 3.847403 32.618068 26.354819
2006-06-02 07:44:38 51°19.441 2°54.738 12.8436 3.847087 32.615753 26.388529
2006-06-02 07:44:44 51°19.448 2°54.771 12.8445 3.845927 32.605478 26.388529
2006-06-02 07:44:49 51°19.453 2°54.798 12.8437 3.845927 32.605478 26.388529
2006-06-02 07:44:54 51°19.459 2°54.825 12.844 3.844979 32.597194 26.388529
2006-06-02 07:44:59 51°19.464 2°54.852 12.8405 3.844558 32.593214 26.388529
2006-06-02 07:45:04 51°19.47 2°54.879 12.8374 3.844979 32.597864 26.354819
2006-06-02 07:45:09 51°19.476 2°54.906 12.8292 3.843504 32.583264 26.354819
2006-06-02 07:45:14 51°19.481 2°54.932 12.8343 3.843504 32.582593 26.32111
2006-06-02 07:45:19 51°19.487 2°54.959 12.8318 3.843504 32.582593 26.32111
2006-06-02 07:45:24 51°19.493 2°54.986 12.8373 3.843293 32.580603 26.32111
2006-06-02 07:45:29 51°19.499 2°55.013 12.8444 3.842556 32.573639 26.354819
2006-06-02 07:45:34 51°19.504 2°55.039 12.8489 3.841713 32.56769 26.422238
2006-06-02 07:45:38 51°19.508 2°55.061 12.8505 3.841818 32.572705 26.523366
2006-06-02 07:45:44 51°19.515 2°55.092 12.8539 3.841186 32.568745 26.489657
2006-06-02 07:45:49 51°19.521 2°55.119 12.8532 3.841186 32.568745 26.489657
2006-06-02 07:45:54 51°19.527 2°55.146 12.8577 3.839921 32.557474 26.557076
2006-06-02 07:45:58 51°19.53 2°55.168 12.8575 3.839816 32.556479 26.590785
2006-06-02 07:46:04 51°19.537 2°55.199 12.8597 3.839289 32.546816 26.624494
2006-06-02 07:46:09 51°19.542 2°55.226 12.8596 3.837603 32.526883 26.725623
2006-06-02 07:46:13 51°19.547 2°55.248 12.8577 3.836971 32.51757 26.759332
2006-06-02 07:46:19 51°19.553 2°55.279 12.8569 3.836971 32.51757 26.759332
2006-06-02 07:46:24 51°19.558 2°55.306 12.8504 3.836128 32.50694 26.826751
2006-06-02 07:46:29 51°19.563 2°55.332 12.8476 3.836128 32.504934 26.826751
2006-06-02 07:46:34 51°19.569 2°55.359 12.8456 3.835601 32.497289 26.86046
2006-06-02 07:46:39 51°19.575 2°55.386 12.8427 3.83539 32.494632 26.89417
2006-06-02 07:46:44 51°19.58 2°55.412 12.8332 3.835285 32.492302 26.89417
2006-06-02 07:46:49 51°19.585 2°55.439 12.8265 3.835285 32.492302 26.89417
2006-06-02 07:46:54 51°19.591 2°55.465 12.8326 3.835812 32.498609 26.89417
2006-06-02 07:46:59 51°19.596 2°55.492 12.8269 3.835285 32.494306 26.995298
2006-06-02 07:47:04 51°19.601 2°55.519 12.8311 3.834126 32.485373 27.029007
2006-06-02 07:47:09 51°19.607 2°55.545 12.8327 3.833599 32.48441 27.029007
2006-06-02 07:47:14 51°19.612 2°55.572 12.8293 3.832861 32.482126 27.096426
2006-06-02 07:47:18 51°19.616 2°55.593 12.8267 3.832861 32.482126 27.096426
2006-06-02 07:47:24 51°19.623 2°55.625 12.8283 3.832229 32.480836 27.197554
2006-06-02 07:47:29 51°19.629 2°55.651 12.83 3.832335 32.485173 27.163845
2006-06-02 07:47:34 51°19.634 2°55.677 12.8291 3.831281 32.476562 27.231264
2006-06-02 07:47:39 51°19.64 2°55.704 12.8333 3.830754 32.472925 27.231264
2006-06-02 07:47:44 51°19.646 2°55.73 12.8356 3.830122 32.466289 27.197554
2006-06-02 07:47:49 51°19.652 2°55.756 12.8434 3.830122 32.466289 27.197554
2006-06-02 07:47:53 51°19.656 2°55.778 12.8391 3.830122 32.467625 27.231264
2006-06-02 07:47:58 51°19.661 2°55.805 12.8387 3.829595 32.463319 27.264973
2006-06-02 07:48:04 51°19.668 2°55.836 12.8385 3.828647 32.453699 27.332392
2006-06-02 07:48:09 51°19.673 2°55.863 12.8414 3.828752 32.454694 27.332392
2006-06-02 07:48:14 51°19.679 2°55.89 12.8453 3.826961 32.437117 27.43352
2006-06-02 07:48:18 51°19.683 2°55.911 12.8458 3.826961 32.437117 27.43352
2006-06-02 07:48:24 51°19.689 2°55.943 12.8437 3.826539 32.429802 27.399811
2006-06-02 07:48:29 51°19.695 2°55.97 12.8478 3.826539 32.427134 27.399811
2006-06-02 07:48:34 51°19.701 2°55.996 12.8491 3.826223 32.422817 27.366101
2006-06-02 07:48:39 51°19.705 2°56.023 12.8608 3.825907 32.420501 27.332392
2006-06-02 07:48:44 51°19.711 2°56.049 12.859 3.825802 32.418172 27.332392
2006-06-02 07:48:49 51°19.716 2°56.075 12.8628 3.825802 32.418172 27.332392
2006-06-02 07:48:54 51°19.722 2°56.102 12.8725 3.826223 32.419482 27.332392
2006-06-02 07:48:59 51°19.728 2°56.128 12.8762 3.82538 32.412195 27.332392
2006-06-02 07:49:04 51°19.733 2°56.155 12.8822 3.825169 32.408873 27.298683
2006-06-02 07:49:09 51°19.739 2°56.181 12.8828 3.824748 32.402231 27.264973
2006-06-02 07:49:14 51°19.743 2°56.208 12.8764 3.824221 32.392597 27.298683
2006-06-02 07:49:19 51°19.749 2°56.235 12.8729 3.824221 32.392597 27.298683
2006-06-02 07:49:24 51°19.754 2°56.262 12.8679 3.823483 32.382976 27.231264
2006-06-02 07:49:29 51°19.759 2°56.289 12.8571 3.823167 32.37467 27.264973
2006-06-02 07:49:34 51°19.765 2°56.315 12.8485 3.821376 32.353789 27.231264
2006-06-02 07:49:39 51°19.769 2°56.342 12.8415 3.820427 32.339531 27.332392
2006-06-02 07:49:44 51°19.775 2°56.368 12.8368 3.819584 32.330257 27.298683
2006-06-02 07:49:49 51°19.779 2°56.395 12.8387 3.819584 32.330257 27.298683
2006-06-02 07:49:53 51°19.784 2°56.416 12.8401 3.818531 32.320326 27.298683
2006-06-02 07:49:58 51°19.79 2°56.443 12.8411 3.818004 32.318017 27.366101
2006-06-02 07:50:04 51°19.796 2°56.474 12.8486 3.816634 32.309755 27.366101
2006-06-02 07:50:09 51°19.801 2°56.5 12.8494 3.815686 32.307458 27.366101
2006-06-02 07:50:14 51°19.807 2°56.526 12.8501 3.814738 32.305824 27.366101
2006-06-02 07:50:19 51°19.812 2°56.552 12.8459 3.814738 32.305824 27.366101
2006-06-02 07:50:24 51°19.818 2°56.579 12.84 3.813684 32.299874 27.332392
2006-06-02 07:50:29 51°19.823 2°56.604 12.8442 3.813473 32.298551 27.366101
2006-06-02 07:50:33 51°19.827 2°56.625 12.837 3.812946 32.294911 27.399811
2006-06-02 07:50:39 51°19.833 2°56.657 12.837 3.811998 32.283312 27.366101
2006-06-02 07:50:44 51°19.837 2°56.683 12.8406 3.811471 32.277017 27.43352
2006-06-02 07:50:49 51°19.842 2°56.709 12.8344 3.811471 32.277017 27.43352
2006-06-02 07:50:54 51°19.847 2°56.736 12.8359 3.809891 32.262115 27.43352
2006-06-02 07:50:58 51°19.85 2°56.757 12.8365 3.809469 32.258805 27.534648
2006-06-02 07:51:04 51°19.857 2°56.789 12.8337 3.808099 32.246555 27.602067
2006-06-02 07:51:09 51°19.861 2°56.815 12.8358 3.806414 32.23265 27.669486
2006-06-02 07:51:14 51°19.866 2°56.841 12.8412 3.805571 32.227355 27.703195
2006-06-02 07:51:19 51°19.872 2°56.868 12.8429 3.805571 32.227355 27.703195
2006-06-02 07:51:21 51°19.874 2°56.878 12.8477 3.804412 32.21709 27.736905
2006-06-02 07:51:29 51°19.883 2°56.92 12.843 3.803463 32.209475 27.804324
2006-06-02 07:51:33 51°19.887 2°56.941 12.8398 3.802515 32.20186 27.838033
2006-06-02 07:51:38 51°19.893 2°56.967 12.8408 3.801883 32.196562 27.905452
2006-06-02 07:51:44 51°19.899 2°56.999 12.8367 3.802199 32.198879 27.939161
2006-06-02 07:51:49 51°19.905 2°57.024 12.8383 3.802199 32.198879 27.939161
2006-06-02 07:51:54 51°19.91 2°57.051 12.8406 3.801672 32.191926 27.871742
2006-06-02 07:51:59 51°19.915 2°57.077 12.8446 3.801251 32.185305 27.838033
2006-06-02 07:52:03 51°19.92 2°57.098 12.8418 3.800302 32.175043 27.871742
2006-06-02 07:52:09 51°19.926 2°57.129 12.849 3.800408 32.176697 27.905452
2006-06-02 07:52:13 51°19.931 2°57.15 12.8473 3.799143 32.166103 27.905452
2006-06-02 07:52:19 51°19.937 2°57.182 12.8408 3.799143 32.166103 27.905452
2006-06-02 07:52:24 51°19.942 2°57.208 12.8382 3.798616 32.1618 27.871742
2006-06-02 07:52:29 51°19.948 2°57.233 12.8391 3.797036 32.147565 27.838033
2006-06-02 07:52:34 51°19.953 2°57.26 12.839 3.797247 32.147567 27.770614
2006-06-02 07:52:39 51°19.958 2°57.286 12.8405 3.796614 32.140948 27.770614
2006-06-02 07:52:44 51°19.963 2°57.312 12.8397 3.796404 32.136979 27.838033
2006-06-02 07:52:49 51°19.968 2°57.338 12.8379 3.796404 32.136979 27.838033
2006-06-02 07:52:53 51°19.972 2°57.358 12.8321 3.795455 32.128704 27.939161
2006-06-02 07:52:57 51°19.976 2°57.379 12.8273 3.794402 32.120757 27.939161
2006-06-02 07:53:04 51°19.983 2°57.416 12.8326 3.79398 32.117446 27.972871
2006-06-02 07:53:09 51°19.989 2°57.442 12.8307 3.793664 32.115789 28.107708
2006-06-02 07:53:14 51°19.993 2°57.468 12.8269 3.792189 32.100568 28.073999
2006-06-02 07:53:19 51°19.999 2°57.495 12.8323 3.792189 32.100568 28.073999
2006-06-02 07:53:24 51°20.003 2°57.521 12.8264 3.792611 32.107181 28.107708
2006-06-02 07:53:29 51°20.009 2°57.546 12.8311 3.791346 32.097907 28.141418
2006-06-02 07:53:34 51°20.013 2°57.573 12.8222 3.791346 32.100549 28.141418
2006-06-02 07:53:39 51°20.019 2°57.599 12.8255 3.790714 32.096572 28.107708
2006-06-02 07:53:44 51°20.024 2°57.625 12.8228 3.790503 32.093925 28.107708
2006-06-02 07:53:49 51°20.029 2°57.651 12.817 3.790503 32.093925 28.107708
2006-06-02 07:53:54 51°20.035 2°57.678 12.8234 3.790714 32.095911 28.073999
2006-06-02 07:53:59 51°20.04 2°57.704 12.8188 3.790503 32.094585 28.073999
2006-06-02 07:54:04 51°20.045 2°57.73 12.8254 3.79103 32.099551 27.972871
2006-06-02 07:54:09 51°20.05 2°57.756 12.8265 3.790082 32.091274 27.972871
2006-06-02 07:54:14 51°20.055 2°57.782 12.8228 3.789766 32.090275 27.939161
2006-06-02 07:54:19 51°20.061 2°57.808 12.8316 3.789766 32.090275 27.939161
2006-06-02 07:54:24 51°20.066 2°57.834 12.8337 3.789977 32.094903 27.905452
2006-06-02 07:54:29 51°20.07 2°57.861 12.8334 3.789344 32.090925 27.871742
2006-06-02 07:54:34 51°20.076 2°57.886 12.8403 3.789661 32.093245 27.838033
2006-06-02 07:54:37 51°20.079 2°57.902 12.838 3.789028 32.085965 27.838033
2006-06-02 07:54:44 51°20.086 2°57.938 12.8345 3.789555 32.09093 27.770614
2006-06-02 07:54:49 51°20.091 2°57.964 12.8344 3.789555 32.09093 27.770614
2006-06-02 07:54:54 51°20.097 2°57.99 12.8425 3.789134 32.084977 27.736905
2006-06-02 07:54:59 51°20.101 2°58.017 12.8304 3.789134 32.082336 27.736905
2006-06-02 07:55:04 51°20.107 2°58.042 12.8342 3.788818 32.077377 27.703195
2006-06-02 07:55:08 51°20.11 2°58.064 12.8341 3.789028 32.076723 27.669486
2006-06-02 07:55:13 51°20.116 2°58.089 12.84 3.789239 32.078709 27.669486
2006-06-02 07:55:18 51°20.12 2°58.116 12.8401 3.789239 32.078709 27.669486
2006-06-02 07:55:24 51°20.126 2°58.148 12.8379 3.788923 32.07639 27.669486
2006-06-02 07:55:29 51°20.131 2°58.174 12.8372 3.788607 32.072092 27.635777
2006-06-02 07:55:34 51°20.135 2°58.2 12.8374 3.788291 32.071093 27.635777
2006-06-02 07:55:38 51°20.14 2°58.221 12.8411 3.789028 32.077383 27.602067
2006-06-02 07:55:44 51°20.145 2°58.252 12.8412 3.788607 32.072752 27.568358